Flight Track Log - Related Links

Times and Time Zones

All times are in EDT time to prevent confusion due to time zone crossing. See the AFL150 flight status page for this flight to view local times or setup timezone preferences in your user account.

Time Position Orientation Groundspeed Altitude Reporting Facility
EDT Latitude Longitude Course Direction KTS MPH feet Rate Location/Type
Tue 06:21:08 AM 55.9790 37.4690 75° East 176 203 2,200  Level FlightAware ADS-B
Tue 06:21:38 AM 55.9850 37.5110 76° East 177 204 3,400 1,745 Climbing FlightAware ADS-B
Tue 06:22:03 AM 55.9910 37.5460 73° East 196 226 3,800 1,000 Climbing FlightAware ADS-B
Tue 06:22:38 AM 56.0000 37.6090 76° East 236 272 4,400 1,292 Climbing FlightAware ADS-B
Tue 06:23:08 AM 56.0180 37.6620 59° Northeast 271 312 5,200 2,000 Climbing FlightAware ADS-B
Tue 06:23:23 AM 56.0350 37.6720 18° North 275 316 5,900 2,400 Climbing FlightAware ADS-B
Tue 06:23:43 AM 56.0610 37.6780 North 281 323 6,600 1,800 Climbing FlightAware ADS-B
Tue 06:24:03 AM 56.0870 37.6650 344° North 291 335 7,100 1,400 Climbing FlightAware ADS-B
Tue 06:24:13 AM 56.0970 37.6500 320° Northwest 290 334 7,300 1,440 Climbing FlightAware ADS-B
Tue 06:24:28 AM 56.1060 37.6190 298° West 287 330 7,700 1,440 Climbing FlightAware ADS-B
Tue 06:24:38 AM 56.1070 37.5940 274° West 287 330 7,900 1,358 Climbing FlightAware ADS-B
Tue 06:25:21 AM 56.1150 37.5000 279° West 298 343 8,900 1,440 Climbing FlightAware ADS-B
Tue 06:25:28 AM 56.1160 37.4760 274° West 296 341 9,100 1,556 Climbing FlightAware ADS-B
Tue 06:25:48 AM 56.1090 37.4310 254° West 292 336 9,600 1,309 Climbing FlightAware ADS-B
Tue 06:26:23 AM 56.0960 37.3610 252° West 298 343 10,300 1,412 Climbing FlightAware ADS-B
Tue 06:27:13 AM 56.0940 37.2150 269° West 344 396 11,600 1,326 Climbing FlightAware ADS-B
Tue 06:27:58 AM 56.1000 37.0790 275° West 384 442 12,400 1,553 Climbing FlightAware ADS-B
Tue 06:28:38 AM 56.1050 36.9500 274° West 395 455 13,800 2,160 Climbing FlightAware ADS-B
Tue 06:29:13 AM 56.1100 36.8390 275° West 403 464 15,100 2,080 Climbing FlightAware ADS-B
Tue 06:29:53 AM 56.1150 36.7000 274° West 414 476 16,400 1,950 Climbing FlightAware ADS-B
Tue 06:30:33 AM 56.1200 36.5620 274° West 424 488 17,700 1,950 Climbing FlightAware ADS-B
Tue 06:31:13 AM 56.1260 36.4210 274° West 428 493 19,000 1,852 Climbing FlightAware ADS-B
Tue 06:31:54 AM 56.1310 36.2770 274° West 437 503 20,200 1,650 Climbing FlightAware ADS-B
Tue 06:32:33 AM 56.1360 36.1310 274° West 448 516 21,200 1,595 Climbing FlightAware ADS-B
Tue 06:33:13 AM 56.1410 35.9830 274° West 454 522 22,300 1,624 Climbing FlightAware ADS-B
Tue 06:33:58 AM 56.1460 35.8120 273° West 461 531 23,500 1,271 Climbing FlightAware ADS-B
Tue 06:34:38 AM 56.1510 35.6570 273° West 476 548 24,100 847 Climbing FlightAware ADS-B
Tue 06:35:23 AM 56.1570 35.4770 273° West 493 567 24,700 800 Climbing FlightAware ADS-B
Tue 06:36:08 AM 56.1640 35.2890 274° West 510 587 25,300 918 Climbing FlightAware ADS-B
Tue 06:36:48 AM 56.1800 35.1230 280° West 515 593 26,000 1,350 Climbing FlightAware ADS-B
Tue 06:37:28 AM 56.1980 34.9560 281° West 512 589 27,100 1,725 Climbing FlightAware ADS-B
Tue 06:38:08 AM 56.2160 34.7910 281° West 506 582 28,300 1,575 Climbing FlightAware ADS-B
Tue 06:38:48 AM 56.2340 34.6250 281° West 507 583 29,200 1,129 Climbing FlightAware ADS-B
Tue 06:39:33 AM 56.2530 34.4390 280° West 513 590 29,900 918 Climbing FlightAware ADS-B
Tue 06:40:13 AM 56.2710 34.2710 281° West 517 595 30,500 1,200 Climbing FlightAware ADS-B
Tue 06:40:58 AM 56.2900 34.0820 280° West 510 587 31,600 1,412 Climbing FlightAware ADS-B
Tue 06:41:38 AM 56.3060 33.9170 280° West 502 578 32,500 828 Climbing FlightAware ADS-B
Tue 06:42:25 AM 56.3240 33.7350 280° West 513 590 32,800 635 Climbing FlightAware ADS-B
Tue 06:43:03 AM 56.3410 33.5640 280° West 514 592 33,400 904 Climbing FlightAware ADS-B
Tue 06:43:38 AM 56.3550 33.4140 280° West 512 589 33,900 480 Climbing FlightAware ADS-B
Tue 06:44:18 AM 56.3710 33.2460 280° West 514 592 34,000 71 Climbing FlightAware ADS-B
Tue 06:45:03 AM 56.3890 33.0570 280° West 515 593 34,000  Level FlightAware ADS-B
Tue 06:45:38 AM 56.4020 32.9060 279° West 517 595 34,000  Level FlightAware ADS-B
Tue 06:46:23 AM 56.4190 32.7170 279° West 516 594 34,000  Level FlightAware ADS-B
Tue 06:47:03 AM 56.4340 32.5510 279° West 516 594 34,000  Level FlightAware ADS-B
Tue 06:47:43 AM 56.4490 32.3760 279° West 516 594 34,000  Level FlightAware ADS-B
Tue 06:48:28 AM 56.4650 32.1950 279° West 515 593 34,000  Level FlightAware ADS-B
Tue 06:49:08 AM 56.4790 32.0240 279° West 515 593 34,000  Level FlightAware ADS-B
Tue 06:49:52 AM 56.4950 31.8330 279° West 513 590 34,000  Level FlightAware ADS-B
Tue 06:50:42 AM 56.5100 31.6370 278° West 512 589 34,000  Level FlightAware ADS-B
Tue 06:51:18 AM 56.5210 31.5060 279° West 512 589 34,000  Level FlightAware ADS-B
Tue 06:52:06 AM 56.5340 31.3330 278° West 512 589 34,000  Level FlightAware ADS-B
Tue 06:52:43 AM 56.5440 31.1990 278° West 512 589 34,000  Level FlightAware ADS-B
Tue 06:53:19 AM 56.5540 31.0690 278° West 512 589 34,000  Level FlightAware ADS-B
Tue 06:54:19 AM 56.5710 30.8520 278° West 512 589 34,000  Level FlightAware ADS-B
Tue 06:54:55 AM 56.5810 30.7210 278° West 512 589 34,000  Level FlightAware ADS-B
Tue 06:55:43 AM 56.5950 30.5480 278° West 512 589 34,000  Level FlightAware ADS-B
Tue 06:56:19 AM 56.6050 30.4170 278° West 512 589 34,000  Level FlightAware ADS-B
Tue 06:57:07 AM 56.6180 30.2430 278° West 512 589 34,000  Level FlightAware ADS-B
Tue 06:57:43 AM 56.6280 30.1130 278° West 512 589 34,000  Level FlightAware ADS-B
Tue 06:58:19 AM 56.6380 29.9820 278° West 512 589 34,000  Level FlightAware ADS-B
Tue 06:59:07 AM 56.6520 29.8080 278° West 512 589 34,000  Level FlightAware ADS-B
Tue 06:59:43 AM 56.6620 29.6780 278° West 512 589 34,000  Level FlightAware ADS-B
Tue 07:00:39 AM 56.6820 29.1720 274° West 488 562 34,000  Level FlightAware ADS-B
Tue 07:01:15 AM 56.6900 29.0460 277° West 488 562 34,000  Level FlightAware ADS-B
Tue 07:01:59 AM 56.7030 28.8270 276° West 488 562 34,000  Level FlightAware ADS-B
Tue 07:02:37 AM 56.7120 28.6620 276° West 489 563 34,000  Level FlightAware ADS-B
Tue 07:03:23 AM 56.7220 28.4770 276° West 489 563 34,000  Level FlightAware ADS-B
Tue 07:04:25 AM 56.7350 28.2290 276° West 486 559 34,000  Level FlightAware ADS-B
Tue 07:05:06 AM 56.7440 28.0680 276° West 483 556 34,000  Level FlightAware ADS-B
Tue 07:05:51 AM 56.7510 27.8780 274° West 485 558 34,000  Level FlightAware ADS-B
Tue 07:06:36 AM 56.7530 27.6950 271° West 486 559 34,000  Level FlightAware ADS-B
Tue 07:07:21 AM 56.7550 27.5130 271° West 486 559 34,000  Level FlightAware ADS-B
Tue 07:08:01 AM 56.7570 27.3500 271° West 486 559 34,000  Level FlightAware ADS-B
Tue 07:08:41 AM 56.7590 27.1830 271° West 485 558 34,000  Level FlightAware ADS-B
Tue 07:09:21 AM 56.7600 27.0230 271° West 483 556 34,000  Level FlightAware ADS-B
Tue 07:10:01 AM 56.7620 26.8680 271° West 481 554 34,000  Level FlightAware ADS-B
Tue 07:10:41 AM 56.7630 26.7000 271° West 481 554 34,000  Level FlightAware ADS-B
Tue 07:11:26 AM 56.7640 26.5240 271° West 481 554 34,000  Level FlightAware ADS-B
Tue 07:12:11 AM 56.7640 26.3350 270° West 481 554 34,000  Level FlightAware ADS-B
Tue 07:12:51 AM 56.7640 26.1760 270° West 480 552 34,000  Level FlightAware ADS-B
Tue 07:13:36 AM 56.7630 25.9910 270° West 480 552 34,000  Level FlightAware ADS-B
Tue 07:14:21 AM 56.7620 25.8100 269° West 481 554 34,000  Level FlightAware ADS-B
Tue 07:15:01 AM 56.7620 25.6620 270° West 482 555 34,000  Level FlightAware ADS-B
Tue 07:15:46 AM 56.7600 25.4720 269° West 481 554 34,000  Level FlightAware ADS-B
Tue 07:16:26 AM 56.7590 25.3150 269° West 480 552 34,000  Level FlightAware ADS-B
Tue 07:17:06 AM 56.7570 25.1470 269° West 480 552 34,000  Level FlightAware ADS-B
Tue 07:17:51 AM 56.7550 24.9660 269° West 482 555 34,000  Level FlightAware ADS-B
Tue 07:18:31 AM 56.7530 24.8040 269° West 483 556 34,000  Level FlightAware ADS-B
Tue 07:19:11 AM 56.7510 24.6430 269° West 485 558 34,000  Level FlightAware ADS-B
Tue 07:19:56 AM 56.7480 24.4590 268° West 488 562 34,000  Level FlightAware ADS-B
Tue 07:20:56 AM 56.7440 24.2110 268° West 489 563 34,000  Level FlightAware ADS-B
Tue 07:21:51 AM 56.7390 23.9840 268° West 488 562 34,000  Level FlightAware ADS-B
Tue 07:22:26 AM 56.7360 23.8380 268° West 489 563 34,000  Level FlightAware ADS-B
Tue 07:23:06 AM 56.7330 23.6770 268° West 489 563 34,000  Level FlightAware ADS-B
Tue 07:23:46 AM 56.7290 23.5200 267° West 488 562 34,000  Level FlightAware ADS-B
Tue 07:24:31 AM 56.7250 23.3300 268° West 488 562 34,000  Level FlightAware ADS-B
Tue 07:25:11 AM 56.7200 23.1630 267° West 488 562 34,000  Level FlightAware ADS-B
Tue 07:25:51 AM 56.7160 23.0090 267° West 487 560 34,000  Level FlightAware ADS-B
Tue 07:26:31 AM 56.7110 22.8350 267° West 486 559 34,000  Level FlightAware ADS-B
Tue 07:27:16 AM 56.7060 22.6510 267° West 488 562 34,000  Level FlightAware ADS-B
Tue 07:27:56 AM 56.7010 22.4890 267° West 488 562 34,000  Level FlightAware ADS-B
Tue 07:28:36 AM 56.6950 22.3260 266° West 487 560 34,000  Level FlightAware ADS-B
Tue 07:29:16 AM 56.6900 22.1670 267° West 487 560 34,000  Level FlightAware ADS-B
Tue 07:29:59 AM 56.6830 21.9850 266° West 487 560 34,000  Level FlightAware ADS-B
Tue 07:30:41 AM 56.6770 21.8140 266° West 486 559 34,000  Level FlightAware ADS-B
Tue 07:31:25 AM 56.6700 21.6350 266° West 484 557 34,000  Level FlightAware ADS-B
Tue 07:32:05 AM 56.6640 21.4730 266° West 482 555 34,000  Level FlightAware ADS-B
Tue 07:32:41 AM 56.6580 21.3280 266° West 481 554 34,000  Level FlightAware ADS-B
Tue 07:33:23 AM 56.6510 21.1580 266° West 479 551 34,000  Level FlightAware ADS-B
Tue 07:34:07 AM 56.6430 20.9870 265° West 478 550 34,000  Level FlightAware ADS-B
Tue 07:34:39 AM 56.6370 20.8540 265° West 477 549 34,000  Level FlightAware ADS-B
Tue 07:35:23 AM 56.6290 20.6830 265° West 477 549 34,000  Level FlightAware ADS-B
Tue 07:36:04 AM 56.6220 20.5200 266° West 478 550 34,000  Level FlightAware ADS-B
Tue 07:36:42 AM 56.6140 20.3670 265° West 478 550 34,000  Level FlightAware ADS-B
Tue 07:37:30 AM 56.6050 20.1770 265° West 479 551 34,000  Level FlightAware ADS-B
Tue 07:38:10 AM 56.5960 20.0130 264° West 481 554 34,000  Level FlightAware ADS-B
Tue 07:38:54 AM 56.5870 19.8390 265° West 481 554 34,000  Level FlightAware ADS-B
Tue 07:39:34 AM 56.5780 19.6780 264° West 480 552 34,000  Level FlightAware ADS-B
Tue 07:40:14 AM 56.5700 19.5200 265° West 479 551 34,000  Level FlightAware ADS-B
Tue 07:40:58 AM 56.5600 19.3450 264° West 480 552 34,000  Level FlightAware ADS-B
Tue 07:41:38 AM 56.5500 19.1860 264° West 479 551 34,000  Level FlightAware ADS-B
Tue 07:42:20 AM 56.5400 19.0160 264° West 478 550 34,000  Level FlightAware ADS-B
Tue 07:43:04 AM 56.5320 18.8430 265° West 479 551 34,000  Level FlightAware ADS-B
Tue 07:43:48 AM 56.5330 18.6650 271° West 478 550 34,000  Level FlightAware ADS-B
Tue 07:44:28 AM 56.5340 18.5040 271° West 477 549 34,000  Level FlightAware ADS-B
Tue 07:45:12 AM 56.5340 18.3320 270° West 476 548 34,000  Level FlightAware ADS-B
Tue 07:45:54 AM 56.5340 18.1650 270° West 475 547 34,000  Level FlightAware ADS-B
Tue 07:46:38 AM 56.5340 18.0000 270° West 476 548 34,000  Level FlightAware ADS-B
Tue 07:47:20 AM 56.5330 17.8250 269° West 478 550 34,000  Level FlightAware ADS-B
Tue 07:48:02 AM 56.5330 17.6570 270° West 480 552 34,000  Level FlightAware ADS-B
Tue 07:48:40 AM 56.5320 17.5030 269° West 480 552 34,000  Level FlightAware ADS-B
Tue 07:49:22 AM 56.5310 17.3330 269° West 482 555 34,000  Level FlightAware ADS-B
Tue 07:50:04 AM 56.5300 17.1630 269° West 482 555 34,000  Level FlightAware ADS-B
Tue 07:50:45 AM 56.5280 17.0040 269° West 481 554 34,000  Level FlightAware ADS-B
Tue 07:51:29 AM 56.5270 16.8270 269° West 478 550 34,000  Level FlightAware ADS-B
Tue 07:52:09 AM 56.5250 16.6700 269° West 472 543 34,000  Level FlightAware ADS-B
Tue 07:52:49 AM 56.5230 16.5110 269° West 465 535 34,000  Level FlightAware ADS-B
Tue 07:53:34 AM 56.5200 16.3380 268° West 462 532 34,000  Level FlightAware ADS-B
Tue 07:54:14 AM 56.5180 16.1830 269° West 460 529 34,000  Level FlightAware ADS-B
Tue 07:54:58 AM 56.5150 16.0160 268° West 459 528 34,000  Level FlightAware ADS-B
Tue 07:55:38 AM 56.5130 15.8670 269° West 457 526 34,000  Level FlightAware ADS-B
Tue 07:56:22 AM 56.5090 15.6950 268° West 449 517 34,000  Level FlightAware ADS-B
Tue 07:57:03 AM 56.5060 15.5400 268° West 447 514 34,000  Level FlightAware ADS-B
Tue 07:57:37 AM 56.5030 15.4160 268° West 445 512 34,000  Level FlightAware ADS-B
Tue 07:58:22 AM 56.5000 15.2560 268° West 441 507 34,000  Level FlightAware ADS-B
Tue 07:59:01 AM 56.4960 15.1090 267° West 438 504 34,000  Level FlightAware ADS-B
Tue 07:59:41 AM 56.4930 14.9620 268° West 438 504 34,000  Level FlightAware ADS-B
Tue 08:00:27 AM 56.4880 14.7940 267° West 437 503 34,000  Level FlightAware ADS-B
Tue 08:01:09 AM 56.4840 14.6420 267° West 440 506 34,000  Level FlightAware ADS-B
Tue 08:01:51 AM 56.4790 14.4860 267° West 444 511 34,000  Level FlightAware ADS-B
Tue 08:02:33 AM 56.4750 14.3330 267° West 444 511 34,000  Level FlightAware ADS-B
Tue 08:03:16 AM 56.4700 14.1690 267° West 444 511 34,000  Level FlightAware ADS-B
Tue 08:03:58 AM 56.4650 14.0140 267° West 445 512 34,000  Level FlightAware ADS-B
Tue 08:04:38 AM 56.4590 13.8640 266° West 444 511 34,000  Level FlightAware ADS-B
Tue 08:05:22 AM 56.4540 13.7050 267° West 443 510 34,000  Level FlightAware ADS-B
Tue 08:06:02 AM 56.4480 13.5550 266° West 445 512 34,000  Level FlightAware ADS-B
Tue 08:06:46 AM 56.4420 13.3930 266° West 447 514 34,000  Level FlightAware ADS-B
Tue 08:07:26 AM 56.4360 13.2440 266° West 445 512 34,000  Level FlightAware ADS-B
Tue 08:08:10 AM 56.4300 13.0840 266° West 444 511 34,000  Level FlightAware ADS-B
Tue 08:08:48 AM 56.4240 12.9460 266° West 444 511 34,000  Level FlightAware ADS-B
Tue 08:09:26 AM 56.4180 12.8040 266° West 445 512 34,000  Level FlightAware ADS-B
Tue 08:10:06 AM 56.4120 12.6580 266° West 444 511 34,000  Level FlightAware ADS-B
Tue 08:10:52 AM 56.4040 12.4890 265° West 442 509 34,000  Level FlightAware ADS-B
Tue 08:11:33 AM 56.3990 12.3470 266° West 442 509 34,000  Level FlightAware ADS-B
Tue 08:12:11 AM 56.3970 12.2030 269° West 443 510 34,000  Level FlightAware ADS-B
Tue 08:12:57 AM 56.3940 12.0340 268° West 445 512 34,000  Level FlightAware ADS-B
Tue 08:13:38 AM 56.3910 11.8770 268° West 447 514 34,000  Level FlightAware ADS-B
Tue 08:14:12 AM 56.3880 11.7520 268° West 448 516 34,000  Level FlightAware ADS-B
Tue 08:14:54 AM 56.3840 11.5930 267° West 450 518 34,000  Level FlightAware ADS-B
Tue 08:15:38 AM 56.3800 11.4290 268° West 451 519 34,000  Level FlightAware ADS-B
Tue 08:16:26 AM 56.3750 11.2530 267° West 450 518 34,000  Level FlightAware ADS-B
Tue 08:17:06 AM 56.3710 11.1010 267° West 449 517 34,000  Level FlightAware ADS-B
Tue 08:17:52 AM 56.3660 10.9300 267° West 448 516 34,000  Level FlightAware ADS-B
Tue 08:18:32 AM 56.3610 10.7750 267° West 447 514 34,000  Level FlightAware ADS-B
Tue 08:19:16 AM 56.3560 10.6130 267° West 447 514 34,000  Level FlightAware ADS-B
Tue 08:19:56 AM 56.3510 10.4690 266° West 448 516 34,000  Level FlightAware ADS-B
Tue 08:20:40 AM 56.3460 10.3050 267° West 449 517 34,000  Level FlightAware ADS-B
Tue 08:21:20 AM 56.3400 10.1560 266° West 450 518 34,000  Level FlightAware ADS-B
Tue 08:22:04 AM 56.3340 9.9950 266° West 450 518 34,000  Level FlightAware ADS-B
Tue 08:22:42 AM 56.3290 9.8500 267° West 448 516 34,000  Level FlightAware ADS-B
Tue 08:23:28 AM 56.3220 9.6810 266° West 445 512 34,000  Level FlightAware ADS-B
Tue 08:24:08 AM 56.3160 9.5310 266° West 443 510 34,000  Level FlightAware ADS-B
Tue 08:24:52 AM 56.3090 9.3720 266° West 440 506 34,000  Level FlightAware ADS-B
Tue 08:25:32 AM 56.3030 9.2300 266° West 439 505 34,000  Level FlightAware ADS-B
Tue 08:26:12 AM 56.2970 9.0830 266° West 440 506 34,000  Level FlightAware ADS-B
Tue 08:26:54 AM 56.2900 8.9310 265° West 440 506 34,000  Level FlightAware ADS-B
Tue 08:27:38 AM 56.2820 8.7700 265° West 440 506 34,000  Level FlightAware ADS-B
Tue 08:28:22 AM 56.2740 8.6050 265° West 440 506 34,000  Level FlightAware ADS-B
Tue 08:29:02 AM 56.2670 8.4590 265° West 438 504 34,000  Level FlightAware ADS-B
Tue 08:29:42 AM 56.2600 8.3220 265° West 438 504 34,000  Level FlightAware ADS-B
Tue 08:30:26 AM 56.2510 8.1520 265° West 439 505 34,000  Level FlightAware ADS-B
Tue 08:31:06 AM 56.2430 8.0100 264° West 439 505 34,000  Level FlightAware ADS-B
Tue 08:31:50 AM 56.2350 7.8500 265° West 440 506 34,000  Level FlightAware ADS-B
Tue 08:32:26 AM 56.2270 7.7200 264° West 439 505 34,000  Level FlightAware ADS-B
Tue 08:33:06 AM 56.2190 7.5740 264° West 438 504 34,000  Level FlightAware ADS-B
Tue 08:33:46 AM 56.2110 7.4290 264° West 438 504 34,000  Level FlightAware ADS-B
Tue 08:34:30 AM 56.2010 7.2710 264° West 438 504 34,000  Level FlightAware ADS-B
Tue 08:35:10 AM 56.1930 7.1270 264° West 435 501 34,000  Level FlightAware ADS-B
Tue 08:35:56 AM 56.1830 6.9640 264° West 433 498 34,000  Level FlightAware ADS-B
Tue 08:36:36 AM 56.1740 6.8220 264° West 432 497 34,000  Level FlightAware ADS-B
Tue 08:37:14 AM 56.1650 6.6870 263° West 433 498 34,000  Level FlightAware ADS-B
Tue 08:37:54 AM 56.1560 6.5450 264° West 435 501 34,000  Level FlightAware ADS-B
Tue 08:38:36 AM 56.1460 6.3960 263° West 436 502 34,000  Level FlightAware ADS-B
Tue 08:39:16 AM 56.1360 6.2480 263° West 437 503 34,000  Level FlightAware ADS-B
Tue 08:40:02 AM 56.1240 6.0860 262° West 437 503 34,000  Level FlightAware ADS-B
Tue 08:40:42 AM 56.1140 5.9420 263° West 436 502 34,000  Level FlightAware ADS-B
Tue 08:41:14 AM 56.1062 5.8270 263° West 1 1 34,000  Level FlightAware UK
Tue 08:41:25 AM 56.1030 5.7890 263° West 436 502 34,000  Level FlightAware ADS-B
Tue 08:42:06 AM 56.0930 5.6410 263° West 435 501 34,000  Level FlightAware ADS-B
Tue 08:42:42 AM 56.0830 5.5140 262° West 435 501 34,000  Level FlightAware ADS-B
Tue 08:43:23 AM 56.0730 5.3740 263° West 437 503 34,000  Level FlightAware ADS-B
Tue 08:44:04 AM 56.0630 5.2490 262° West 438 504 34,000  Level FlightAware ADS-B
Tue 08:44:41 AM 56.0550 5.0890 265° West 437 503 34,000  Level FlightAware ADS-B
Tue 08:45:22 AM 56.0490 4.9480 266° West 436 502 34,000  Level FlightAware ADS-B
Tue 08:46:13 AM 56.0390 4.7650 264° West 433 498 34,000  Level FlightAware ADS-B
Tue 08:46:53 AM 56.0320 4.6330 265° West 432 497 34,000  Level FlightAware ADS-B
Tue 08:47:51 AM 56.0200 4.4200 264° West 432 497 34,000  Level FlightAware ADS-B
Tue 08:48:34 AM 56.0120 4.2830 264° West 433 498 34,000  Level FlightAware ADS-B
Tue 08:48:37 AM 56.0102 4.2447 264° West 456 525 34,000  Level FlightAware UK
Tue 08:49:07 AM 56.0037 4.1385 264° West 458 527 34,000  Level FlightAware UK
Tue 08:49:23 AM 56.0010 4.0920 264° West 435 501 34,000  Level FlightAware ADS-B
Tue 08:50:07 AM 55.9920 3.9410 264° West 436 502 34,000  Level FlightAware ADS-B
Tue 08:50:48 AM 55.9830 3.7990 264° West 436 502 34,000  Level FlightAware ADS-B
Tue 08:51:23 AM 55.9750 3.6810 263° West 437 503 34,000  Level FlightAware ADS-B
Tue 08:52:01 AM 55.9655 3.5178 263° West 454 522 34,000  Level FlightAware UK
Tue 08:52:02 AM 55.9650 3.5230 263° West 438 504 34,000  Level FlightAware ADS-B
Tue 08:52:37 AM 55.9568 3.3890 263° West 456 525 34,000  Level FlightAware UK
Tue 08:52:38 AM 55.9580 3.4070 263° West 441 507 34,000  Level FlightAware ADS-B
Tue 08:53:12 AM 55.9490 3.2720 263° West 442 509 34,000  Level FlightAware ADS-B
Tue 08:53:13 AM 55.9481 3.2585 263° West 458 527 34,000  Level FlightAware UK
Tue 08:54:07 AM 55.9351 3.0648 263° West 458 527 34,000  Level FlightAware UK
Tue 08:54:07 AM 55.9370 3.0880 263° West 442 509 34,000  Level FlightAware ADS-B
Tue 08:54:43 AM 55.9262 2.9340 263° West 458 527 34,000  Level FlightAware UK
Tue 08:54:43 AM 55.9280 2.9570 263° West 442 509 34,000  Level FlightAware ADS-B
Tue 08:55:25 AM 55.9156 2.7823 263° West 458 527 34,000  Level FlightAware UK
Tue 08:55:27 AM 55.9170 2.8020 263° West 441 507 34,000  Level FlightAware ADS-B
Tue 08:56:07 AM 55.9048 2.6314 263° West 462 532 34,000  Level FlightAware UK
Tue 08:56:29 AM 55.9020 2.5930 263° West 442 509 34,000  Level FlightAware ADS-B
Tue 08:57:08 AM 55.8900 2.4170 263° West 438 504 34,000  Level FlightAware ADS-B
Tue 08:58:00 AM 55.8895 2.2236 263° West 460 529 34,000  Level FlightAware UK
Tue 08:58:18 AM 55.8910 2.1760 263° West 439 505 34,000  Level FlightAware ADS-B
Tue 08:58:58 AM 55.8940 2.0220 272° West 443 510 34,000  Level FlightAware ADS-B
Tue 08:59:30 AM 55.8961 1.8958 272° West 462 532 34,000  Level FlightAware UK
Tue 08:59:43 AM 55.8970 1.8580 272° West 444 511 34,000  Level FlightAware ADS-B
Tue 09:00:13 AM 55.8990 1.7480 272° West 443 510 34,000  Level FlightAware ADS-B
Tue 09:00:48 AM 55.9010 1.6220 272° West 443 510 34,000  Level FlightAware ADS-B
Tue 09:01:33 AM 55.9040 1.4570 272° West 444 511 34,000  Level FlightAware ADS-B
Tue 09:02:13 AM 55.9060 1.3100 271° West 446 513 34,000  Level FlightAware ADS-B
Tue 09:02:58 AM 55.9090 1.1470 272° West 448 516 34,000  Level FlightAware ADS-B
Tue 09:03:38 AM 55.9110 1.0000 272° West 448 516 34,000  Level FlightAware ADS-B
Tue 09:03:42 AM 55.9108 0.9779 272° West 460 529 34,000  Level FlightAware UK
Tue 09:04:18 AM 55.9123 0.8461 272° West 460 529 34,000  Level FlightAware UK
Tue 09:04:23 AM 55.9120 0.8350 272° West 449 517 34,000  Level FlightAware ADS-B
Tue 09:05:12 AM 55.9145 0.6470 272° West 460 529 34,000  Level FlightAware UK
Tue 09:05:18 AM 55.9140 0.6300 272° West 450 518 34,000  Level FlightAware ADS-B
Tue 09:05:54 AM 55.9157 0.4924 272° West 458 527 34,000  Level FlightAware UK
Tue 09:05:58 AM 55.9160 0.4830 272° West 450 518 34,000  Level FlightAware ADS-B
Tue 09:06:36 AM 55.9168 0.3368 272° West 458 527 34,000  Level FlightAware UK
Tue 09:06:43 AM 55.9170 0.3150 272° West 451 519 34,000  Level FlightAware ADS-B
Tue 09:07:23 AM 55.9180 0.1680 271° West 453 521 34,000  Level FlightAware ADS-B
Tue 09:07:53 AM 55.9187 0.0484 271° West 458 527 34,000  Level FlightAware UK
Tue 09:08:08 AM 55.9190 -0.0010 271° West 455 524 34,000  Level FlightAware ADS-B
Tue 09:08:48 AM 55.9190 -0.1490 270° West 457 526 34,000  Level FlightAware ADS-B
Tue 09:09:23 AM 55.9190 -0.2820 270° West 456 525 34,000  Level FlightAware ADS-B
Tue 09:09:53 AM 55.9196 -0.4005 270° West 456 525 34,000  Level FlightAware UK
Tue 09:10:08 AM 55.9200 -0.4500 270° West 457 526 34,000  Level FlightAware ADS-B
Tue 09:11:00 AM 55.9200 -0.6400 270° West 460 529 34,000  Level FlightAware ADS-B
Tue 09:11:35 AM 55.9193 -0.7836 270° West 462 532 34,000  Level FlightAware UK
Tue 09:11:43 AM 55.9190 -0.8100 270° West 463 533 34,000  Level FlightAware ADS-B
Tue 09:12:28 AM 55.9190 -0.9810 270° West 465 535 34,000  Level FlightAware ADS-B
Tue 09:12:59 AM 55.9181 -1.1034 270° West 466 536 34,000  Level FlightAware UK
Tue 09:13:02 AM 55.9180 -1.0900 270° West 465 535 34,000  Level FlightAware ADS-B
Tue 09:13:51 AM 55.9170 -1.2990 270° West 465 535 34,000  Level FlightAware ADS-B
Tue 09:14:34 AM 55.9160 -1.4680 269° West 465 535 34,000  Level FlightAware ADS-B
Tue 09:15:14 AM 55.9140 -1.6220 269° West 467 537 34,000  Level FlightAware ADS-B
Tue 09:15:55 AM 55.9130 -1.7690 269° West 469 540 34,000  Level FlightAware ADS-B
Tue 09:15:58 AM 55.9128 -1.7910 269° West 464 534 34,000  Level FlightAware UK
Tue 09:16:35 AM 55.9110 -1.9260 269° West 471 542 34,000  Level FlightAware ADS-B
Tue 09:17:16 AM 55.9092 -2.0925 269° West 464 534 34,000  Level FlightAware UK
Tue 09:17:20 AM 55.9090 -2.0960 269° West 472 543 34,000  Level FlightAware ADS-B
Tue 09:17:56 AM 55.9070 -2.2380 269° West 472 543 34,000  Level FlightAware ADS-B
Tue 09:18:45 AM 55.9130 -2.4320 273° West 476 548 34,000  Level FlightAware ADS-B
Tue 09:19:25 AM 55.9190 -2.5850 274° West 476 548 34,000  Level FlightAware ADS-B
Tue 09:20:04 AM 55.9256 -2.7462 274° West 466 536 34,000  Level FlightAware UK
Tue 09:20:11 AM 55.9260 -2.7650 274° West 477 549 34,000  Level FlightAware ADS-B
Tue 09:20:51 AM 55.9160 -2.9220 264° West 470 541 34,000  Level FlightAware ADS-B
Tue 09:21:32 AM 55.9020 -3.0730 261° West 471 542 34,000  Level FlightAware ADS-B
Tue 09:22:10 AM 55.8870 -3.2220 260° West 472 543 34,000  Level FlightAware ADS-B
Tue 09:22:45 AM 55.8739 -3.3655 260° West 466 536 34,000  Level FlightAware UK
Tue 09:22:55 AM 55.8710 -3.3910 260° West 472 543 34,000  Level FlightAware ADS-B
Tue 09:23:41 AM 55.8550 -3.5640 261° West 475 547 34,000  Level FlightAware ADS-B
Tue 09:24:18 AM 55.8410 -3.7160 261° West 477 549 34,000  Level FlightAware ADS-B
Tue 09:24:21 AM 55.8391 -3.7342 261° West 464 534 34,000  Level FlightAware UK
Tue 09:25:00 AM 55.8280 -3.8610 261° West 478 550 34,000  Level FlightAware ADS-B
Tue 09:25:36 AM 55.8130 -4.0110 260° West 480 552 34,000  Level FlightAware ADS-B
Tue 09:26:21 AM 55.7956 -4.1988 260° West 466 536 34,000  Level FlightAware UK
Tue 09:26:34 AM 55.7920 -4.2430 260° West 482 555 34,000  Level FlightAware ADS-B
Tue 09:27:13 AM 55.7790 -4.3980 262° West 487 560 34,000  Level FlightAware ADS-B
Tue 09:27:48 AM 55.7910 -4.5330 279° West 499 574 34,000  Level FlightAware ADS-B
Tue 09:28:21 AM 55.8182 -4.6706 279° West 462 532 34,000  Level FlightAware UK
Tue 09:28:28 AM 55.8220 -4.6890 279° West 504 580 34,000  Level FlightAware ADS-B
Tue 09:29:09 AM 55.8518 -4.8592 279° West 466 536 34,000  Level FlightAware UK
Tue 09:29:14 AM 55.8540 -4.8740 279° West 501 577 34,000  Level FlightAware ADS-B
Tue 09:29:54 AM 55.8670 -5.0350 279° West 496 571 34,000  Level FlightAware ADS-B
Tue 09:29:57 AM 55.8668 -5.0538 279° West 464 534 34,000  Level FlightAware UK
Tue 09:30:27 AM 55.8681 -5.1756 279° West 466 536 34,000  Level FlightAware UK
Tue 09:30:39 AM 55.8680 -5.2150 279° West 497 572 34,000  Level FlightAware ADS-B
Tue 09:31:20 AM 55.8700 -5.3850 271° West 498 573 34,000  Level FlightAware ADS-B
Tue 09:31:59 AM 55.8730 -5.5470 272° West 498 573 34,000  Level FlightAware ADS-B
Tue 09:32:35 AM 55.8750 -5.6840 272° West 498 573 34,000  Level FlightAware ADS-B
Tue 09:33:14 AM 55.8790 -5.8510 272° West 501 577 34,000  Level FlightAware ADS-B
Tue 09:33:21 AM 55.8806 -5.8850 272° West 462 532 34,000  Level FlightAware UK
Tue 09:33:51 AM 55.8883 -6.0083 272° West 462 532 34,000  Level FlightAware UK
Tue 09:34:00 AM 55.8900 -6.0390 272° West 504 580 34,000  Level FlightAware ADS-B
Tue 09:34:35 AM 55.8970 -6.1870 275° West 504 580 34,000  Level FlightAware ADS-B
Tue 09:35:16 AM 55.9050 -6.3540 275° West 505 581 34,000  Level FlightAware ADS-B
Tue 09:36:01 AM 55.9140 -6.5400 275° West 509 586 34,000  Level FlightAware ADS-B
Tue 09:36:39 AM 55.9209 -6.7048 275° West 464 534 34,000  Level FlightAware UK
Tue 09:36:41 AM 55.9210 -6.7100 275° West 513 590 34,000  Level FlightAware ADS-B
Tue 09:37:26 AM 55.9290 -6.8970 274° West 513 590 34,000  Level FlightAware ADS-B
Tue 09:38:06 AM 55.9360 -7.0660 274° West 515 593 34,000  Level FlightAware ADS-B
Tue 09:38:51 AM 55.9439 -7.2614 274° West 464 534 34,000  Level FlightAware UK
Tue 09:38:51 AM 55.9440 -7.2570 274° West 517 595 34,000  Level FlightAware ADS-B
Tue 09:39:21 AM 55.9487 -7.3887 274° West 466 536 34,000  Level FlightAware UK
Tue 09:39:32 AM 55.9500 -7.4290 274° West 519 597 34,000  Level FlightAware ADS-B
Tue 09:39:52 AM 55.9530 -7.5150 274° West 520 598 34,000  Level FlightAware ADS-B
Tue 09:40:26 AM 55.9590 -7.6695 274° West 466 536 34,000  Level FlightAware UK
Tue 09:40:56 AM 55.9636 -7.7977 274° West 468 539 34,000  Level FlightAware UK
Tue 09:41:02 AM 55.9640 -7.8120 274° West 520 598 34,000  Level FlightAware ADS-B
Tue 09:41:47 AM 55.9700 -8.0050 273° West 518 596 34,000  Level FlightAware ADS-B
Tue 09:42:22 AM 55.9750 -8.1540 273° West 518 596 34,000  Level FlightAware ADS-B
Tue 09:42:56 AM 55.9800 -8.3090 273° West 464 534 34,000  Level FlightAware UK
Tue 09:43:05 AM 55.9810 -8.3400 273° West 519 597 34,000  Level FlightAware ADS-B
Tue 09:43:46 AM 55.9860 -8.5120 273° West 521 600 34,000  Level FlightAware ADS-B
Tue 09:44:26 AM 55.9911 -8.6947 273° West 462 532 34,000  Level FlightAware UK
Tue 09:44:26 AM 55.9910 -8.6840 273° West 522 601 34,000  Level FlightAware ADS-B
Tue 09:45:02 AM 55.9952 -8.8487 273° West 464 534 34,000  Level FlightAware UK
Tue 09:45:11 AM 55.9960 -8.8780 273° West 524 603 34,000  Level FlightAware ADS-B
Tue 09:45:51 AM 56.0000 -9.0560 272° West 526 605 34,000  Level FlightAware ADS-B
Tue 09:46:31 AM 56.0040 -9.2260 272° West 527 606 34,000  Level FlightAware ADS-B
Tue 09:47:11 AM 56.0080 -9.3980 272° West 528 608 34,000  Level FlightAware ADS-B
Tue 09:47:46 AM 56.0110 -9.5510 272° West 528 608 34,000  Level FlightAware ADS-B
Tue 09:48:31 AM 56.0150 -9.7450 272° West 528 608 34,000  Level FlightAware ADS-B
Tue 09:49:11 AM 56.0180 -9.9210 272° West 528 608 34,000  Level FlightAware ADS-B
Tue 09:49:46 AM 56.0210 -10.0730 272° West 528 608 34,000  Level FlightAware ADS-B
Tue 09:50:31 AM 56.0240 -10.2710 272° West 529 609 34,000  Level FlightAware ADS-B
Tue 09:51:11 AM 56.0260 -10.4410 271° West 529 609 34,000  Level FlightAware ADS-B
Tue 09:51:46 AM 56.0280 -10.5990 271° West 530 610 34,000  Level FlightAware ADS-B
Tue 09:52:31 AM 56.0300 -10.7890 271° West 529 609 34,000  Level FlightAware ADS-B
Tue 09:53:11 AM 56.0320 -10.9690 271° West 529 609 34,000  Level FlightAware ADS-B
Tue 09:53:58 AM 56.0330 -11.1590 271° West 528 608 34,000  Level FlightAware ADS-B
Tue 09:54:37 AM 56.0340 -11.3360 271° West 528 608 34,000  Level FlightAware ADS-B
Tue 09:55:17 AM 56.0350 -11.5180 271° West 528 608 34,000  Level FlightAware ADS-B
Tue 09:55:58 AM 56.0360 -11.6880 271° West 529 609 34,000  Level FlightAware ADS-B
Tue 09:56:37 AM 56.0360 -11.8580 270° West 530 610 34,000  Level FlightAware ADS-B
Tue 09:57:17 AM 56.0360 -12.0350 270° West 531 611 34,000  Level FlightAware ADS-B
Tue 09:57:57 AM 56.0350 -12.1950 269° West 531 611 34,000  Level FlightAware ADS-B
Tue 09:58:45 AM 56.0330 -12.3750 269° West 531 611 34,000  Level FlightAware ADS-B
Tue 09:59:22 AM 56.0320 -12.5130 269° West 531 611 34,000  Level FlightAware ADS-B
Tue 10:00:09 AM 56.0300 -12.6890 269° West 531 611 34,000  Level FlightAware ADS-B
Tue 10:00:45 AM 56.0290 -12.8230 269° West 531 611 34,000  Level FlightAware ADS-B
Tue 10:01:34 AM 56.0270 -13.0060 269° West 531 611 34,000  Level FlightAware ADS-B
Tue 10:02:10 AM 56.0260 -13.1410 269° West 531 611 34,000  Level FlightAware ADS-B
Tue 10:03:37 AM 56.0230 -13.4660 269° West 531 611 34,000  Level FlightAware ADS-B
Tue 10:04:13 AM 56.0210 -13.6000 269° West 531 611 34,000  Level FlightAware ADS-B
Tue 10:05:01 AM 56.0190 -13.7800 269° West 531 611 34,000  Level FlightAware ADS-B
Tue 10:05:38 AM 56.0180 -13.9180 269° West 531 611 34,000  Level FlightAware ADS-B
Tue 10:06:26 AM 56.0160 -14.0970 269° West 531 611 34,000  Level FlightAware ADS-B
Tue 10:07:03 AM 56.0150 -14.2350 269° West 531 611 34,000  Level FlightAware ADS-B
Tue 10:09:00 AM 55.9947 -14.6884 266° West  Level Estimated
Tue 10:10:00 AM 55.9837 -14.9207 265° West  Level Estimated
Tue 10:11:00 AM 55.9722 -15.1529 265° West  Level Estimated
Tue 10:12:00 AM 55.9603 -15.3850 265° West  Level Estimated
Tue 10:13:00 AM 55.9480 -15.6169 265° West  Level Estimated
Tue 10:14:00 AM 55.9352 -15.8486 264° West  Level Estimated
Tue 10:15:00 AM 55.9220 -16.0802 264° West  Level Estimated
Tue 10:16:00 AM 55.9083 -16.3117 264° West  Level Estimated
Tue 10:17:00 AM 55.8943 -16.5430 264° West  Level Estimated
Tue 10:18:00 AM 55.8797 -16.7741 264° West  Level Estimated
Tue 10:19:00 AM 55.8648 -17.0050 264° West  Level Estimated
Tue 10:20:00 AM 55.8494 -17.2358 263° West  Level Estimated
Tue 10:21:00 AM 55.8336 -17.4663 263° West  Level Estimated
Tue 10:22:00 AM 55.8174 -17.6967 263° West  Level Estimated
Tue 10:23:00 AM 55.8007 -17.9269 263° West  Level Estimated
Tue 10:24:00 AM 55.7836 -18.1569 263° West  Level Estimated
Tue 10:25:00 AM 55.7661 -18.3866 262° West  Level Estimated
Tue 10:26:00 AM 55.7481 -18.6162 262° West  Level Estimated
Tue 10:27:00 AM 55.7297 -18.8456 262° West  Level Estimated
Tue 10:28:00 AM 55.7109 -19.0747 262° West  Level Estimated
Tue 10:29:00 AM 55.6917 -19.3036 262° West  Level Estimated
Tue 10:29:06 AM 57.0000 -20.0000 285° West 517 595 34,000  Level ETMS Enhanced Traffic Management System
Tue 10:30:00 AM 55.6720 -19.5323 261° West  Level Estimated
Tue 10:31:00 AM 55.6519 -19.7607 261° West  Level Estimated
Tue 10:32:00 AM 55.6314 -19.9890 261° West  Level Estimated
Tue 10:33:00 AM 55.6105 -20.2169 261° West  Level Estimated
Tue 10:34:00 AM 55.5891 -20.4447 261° West  Level Estimated
Tue 10:35:00 AM 57.2430 -21.7979 283° West 517 595 34,000  Level FlightAware Transoceanic
Tue 10:35:12 AM 57.2167 -21.5833 283° West 514 592 34,000  Level ETMS Enhanced Traffic Management System
Tue 10:36:00 AM 57.2757 -22.0566 283° West 517 595 34,000  Level FlightAware Transoceanic
Tue 10:37:00 AM 57.3077 -22.3158 283° West 517 595 34,000  Level FlightAware Transoceanic
Tue 10:38:00 AM 57.3393 -22.5755 283° West 517 595 34,000  Level FlightAware Transoceanic
Tue 10:39:00 AM 57.3703 -22.8355 282° West 517 595 34,000  Level FlightAware Transoceanic
Tue 10:40:00 AM 57.4007 -23.0961 282° West 517 595 34,000  Level FlightAware Transoceanic
Tue 10:41:00 AM 57.4058 -23.1320 282° West 514 592 34,000  Level FlightAware Transoceanic
Tue 10:42:00 AM 57.4355 -23.3916 282° West 514 592 34,000  Level FlightAware Transoceanic
Tue 10:43:00 AM 57.4646 -23.6516 282° West 514 592 34,000  Level FlightAware Transoceanic
Tue 10:44:00 AM 57.4932 -23.9121 281° West 514 592 34,000  Level FlightAware Transoceanic
Tue 10:45:00 AM 57.5213 -24.1730 281° West 514 592 34,000  Level FlightAware Transoceanic
Tue 10:46:00 AM 57.5488 -24.4342 281° West 514 592 34,000  Level FlightAware Transoceanic
Tue 10:47:00 AM 57.5758 -24.6959 281° West 514 592 34,000  Level FlightAware Transoceanic
Tue 10:48:00 AM 57.6022 -24.9579 281° West 514 592 34,000  Level FlightAware Transoceanic
Tue 10:49:00 AM 57.6281 -25.2203 280° West 514 592 34,000  Level FlightAware Transoceanic
Tue 10:50:00 AM 57.6535 -25.4831 280° West 514 592 34,000  Level FlightAware Transoceanic
Tue 10:51:00 AM 57.6783 -25.7462 280° West 514 592 34,000  Level FlightAware Transoceanic
Tue 10:52:00 AM 57.7025 -26.0097 280° West 514 592 34,000  Level FlightAware Transoceanic
Tue 10:53:00 AM 57.7262 -26.2736 279° West 514 592 34,000  Level FlightAware Transoceanic
Tue 10:54:00 AM 57.7494 -26.5378 279° West 514 592 34,000  Level FlightAware Transoceanic
Tue 10:55:00 AM 57.7720 -26.8023 279° West 514 592 34,000  Level FlightAware Transoceanic
Tue 10:56:00 AM 57.7941 -27.0672 279° West 514 592 34,000  Level FlightAware Transoceanic
Tue 10:57:00 AM 57.8156 -27.3323 279° West 514 592 34,000  Level FlightAware Transoceanic
Tue 10:58:00 AM 57.8365 -27.5978 278° West 514 592 34,000  Level FlightAware Transoceanic
Tue 10:59:00 AM 57.8569 -27.8636 278° West 514 592 34,000  Level FlightAware Transoceanic
Tue 11:00:00 AM 57.8768 -28.1297 278° West 514 592 34,000  Level FlightAware Transoceanic
Tue 11:01:00 AM 57.8960 -28.3961 278° West 514 592 34,000  Level FlightAware Transoceanic
Tue 11:02:00 AM 57.9148 -28.6628 277° West 514 592 34,000  Level FlightAware Transoceanic
Tue 11:03:00 AM 57.9329 -28.9297 277° West 514 592 34,000  Level FlightAware Transoceanic
Tue 11:04:00 AM 57.9506 -29.1969 277° West 514 592 34,000  Level FlightAware Transoceanic
Tue 11:05:00 AM 57.9676 -29.4643 277° West 514 592 34,000  Level FlightAware Transoceanic
Tue 11:06:00 AM 57.9841 -29.7320 277° West 514 592 34,000  Level FlightAware Transoceanic
Tue 11:07:00 AM 57.9986 -29.9769 277° West  Level FlightAware Approximate
Tue 11:08:00 AM 58.0127 -30.2219 276° West  Level FlightAware Approximate
Tue 11:09:00 AM 57.9882 -30.1986 264° West  Level FlightAware Approximate
Tue 11:10:00 AM 57.9733 -30.4433 264° West  Level FlightAware Approximate
Tue 11:11:00 AM 57.9579 -30.6878 263° West  Level FlightAware Approximate
Tue 11:12:00 AM 57.9420 -30.9320 263° West  Level FlightAware Approximate
Tue 11:13:00 AM 57.9257 -31.1761 263° West  Level FlightAware Approximate
Tue 11:14:00 AM 57.9089 -31.4199 263° West  Level FlightAware Approximate
Tue 11:15:00 AM 57.8916 -31.6635 262° West  Level FlightAware Approximate
Tue 11:16:00 AM 57.8738 -31.9068 262° West  Level FlightAware Approximate
Tue 11:17:00 AM 57.8556 -32.1499 262° West  Level FlightAware Approximate
Tue 11:18:00 AM 57.8369 -32.3928 262° West  Level FlightAware Approximate
Tue 11:19:00 AM 57.8178 -32.6354 262° West  Level FlightAware Approximate
Tue 11:20:00 AM 57.7982 -32.8777 261° West  Level FlightAware Approximate
Tue 11:21:00 AM 57.7781 -33.1198 261° West  Level FlightAware Approximate
Tue 11:22:00 AM 57.7576 -33.3616 261° West  Level FlightAware Approximate
Tue 11:23:00 AM 57.7366 -33.6031 261° West  Level FlightAware Approximate
Tue 11:24:00 AM 57.7152 -33.8443 261° West  Level FlightAware Approximate
Tue 11:25:00 AM 57.6933 -34.0853 260° West  Level FlightAware Approximate
Tue 11:26:00 AM 57.6710 -34.3259 260° West  Level FlightAware Approximate
Tue 11:27:00 AM 57.6481 -34.5663 260° West  Level FlightAware Approximate
Tue 11:28:00 AM 57.6249 -34.8064 260° West  Level FlightAware Approximate
Tue 11:29:00 AM 57.6012 -35.0461 260° West  Level FlightAware Approximate
Tue 11:30:00 AM 57.5770 -35.2855 259° West  Level FlightAware Approximate
Tue 11:31:00 AM 57.5523 -35.5246 259° West  Level FlightAware Approximate
Tue 11:32:00 AM 57.5273 -35.7634 259° West  Level FlightAware Approximate
Tue 11:33:00 AM 57.5017 -36.0018 259° West  Level FlightAware Approximate
Tue 11:34:00 AM 57.4758 -36.2399 259° West  Level FlightAware Approximate
Tue 11:35:00 AM 57.4493 -36.4777 258° West  Level FlightAware Approximate
Tue 11:36:00 AM 57.4225 -36.7151 258° West  Level FlightAware Approximate
Tue 11:37:00 AM 57.3951 -36.9522 258° West  Level FlightAware Approximate
Tue 11:38:00 AM 57.3674 -37.1889 258° West  Level FlightAware Approximate
Tue 11:39:00 AM 57.3392 -37.4253 258° West  Level FlightAware Approximate
Tue 11:40:00 AM 57.3105 -37.6613 257° West  Level FlightAware Approximate
Tue 11:41:00 AM 57.2814 -37.8969 257° West  Level FlightAware Approximate
Tue 11:42:00 AM 57.2519 -38.1321 257° West  Level FlightAware Approximate
Tue 11:43:00 AM 57.2219 -38.3670 257° West  Level FlightAware Approximate
Tue 11:44:00 AM 57.1915 -38.6015 257° West  Level FlightAware Approximate
Tue 11:45:00 AM 57.1607 -38.8356 256° West  Level FlightAware Approximate
Tue 11:46:00 AM 57.1294 -39.0693 256° West  Level FlightAware Approximate
Tue 11:47:00 AM 57.0977 -39.3026 256° West  Level FlightAware Approximate
Tue 11:48:00 AM 57.0656 -39.5355 256° West  Level FlightAware Approximate
Tue 11:49:00 AM 57.0330 -39.7680 256° West  Level FlightAware Approximate
Tue 11:50:00 AM 57.0000 -40.0000 255° West  Level FlightAware Approximate
Tue 11:51:00 AM 56.9649 -40.2309 255° West  Level FlightAware Approximate
Tue 11:52:00 AM 56.9294 -40.4613 254° West  Level FlightAware Approximate
Tue 11:53:00 AM 56.8935 -40.6913 254° West  Level FlightAware Approximate
Tue 11:54:00 AM 56.8572 -40.9208 254° West  Level FlightAware Approximate
Tue 11:55:00 AM 56.8204 -41.1499 254° West  Level FlightAware Approximate
Tue 11:56:00 AM 56.7832 -41.3785 254° West  Level FlightAware Approximate
Tue 11:57:00 AM 56.7456 -41.6067 253° West  Level FlightAware Approximate
Tue 11:58:00 AM 56.7076 -41.8344 253° West  Level FlightAware Approximate
Tue 11:59:00 AM 56.6692 -42.0616 253° West  Level FlightAware Approximate
Tue 12:00:00 PM 56.6303 -42.2884 253° West  Level FlightAware Approximate
Tue 12:01:00 PM 56.5911 -42.5147 253° West  Level FlightAware Approximate
Tue 12:02:00 PM 56.5514 -42.7406 252° West  Level FlightAware Approximate
Tue 12:03:00 PM 56.5113 -42.9659 252° West  Level FlightAware Approximate
Tue 12:04:00 PM 56.4709 -43.1908 252° West  Level FlightAware Approximate
Tue 12:05:00 PM 56.4300 -43.4152 252° West  Level FlightAware Approximate
Tue 12:06:00 PM 56.3887 -43.6391 252° West  Level FlightAware Approximate
Tue 12:07:00 PM 56.3470 -43.8626 251° West  Level FlightAware Approximate
Tue 12:08:00 PM 56.3049 -44.0855 251° West  Level FlightAware Approximate
Tue 12:09:00 PM 56.2624 -44.3080 251° West  Level FlightAware Approximate
Tue 12:10:00 PM 56.2195 -44.5299 251° West  Level FlightAware Approximate
Tue 12:11:00 PM 56.1762 -44.7514 251° West  Level FlightAware Approximate
Tue 12:12:00 PM 56.1326 -44.9724 251° West  Level FlightAware Approximate
Tue 12:13:00 PM 56.0885 -45.1928 250° West  Level FlightAware Approximate
Tue 12:14:00 PM 56.0440 -45.4128 250° West  Level FlightAware Approximate
Tue 12:15:00 PM 55.9991 -45.6322 250° West  Level FlightAware Approximate
Tue 12:16:00 PM 55.9539 -45.8511 250° West  Level FlightAware Approximate
Tue 12:17:00 PM 55.9083 -46.0695 250° West  Level FlightAware Approximate
Tue 12:18:00 PM 55.8623 -46.2874 249° West  Level FlightAware Approximate
Tue 12:19:00 PM 55.8158 -46.5048 249° West  Level FlightAware Approximate
Tue 12:20:00 PM 55.7691 -46.7217 249° West  Level FlightAware Approximate
Tue 12:21:00 PM 55.7219 -46.9380 249° West  Level FlightAware Approximate
Tue 12:22:00 PM 55.6743 -47.1538 249° West  Level FlightAware Approximate
Tue 12:23:00 PM 55.6264 -47.3691 249° West  Level FlightAware Approximate
Tue 12:24:00 PM 55.5781 -47.5839 248° West  Level FlightAware Approximate
Tue 12:25:00 PM 55.5294 -47.7981 248° West  Level FlightAware Approximate
Tue 12:26:00 PM 55.4804 -48.0118 248° West  Level FlightAware Approximate
Tue 12:27:00 PM 55.4310 -48.2250 248° West  Level FlightAware Approximate
Tue 12:28:00 PM 55.3812 -48.4376 248° West  Level FlightAware Approximate
Tue 12:29:00 PM 55.3310 -48.6497 248° West  Level FlightAware Approximate
Tue 12:30:00 PM 55.2805 -48.8613 247° West  Level FlightAware Approximate
Tue 12:31:00 PM 55.2296 -49.0723 247° West  Level FlightAware Approximate
Tue 12:32:00 PM 55.1784 -49.2827 247° West  Level FlightAware Approximate
Tue 12:33:00 PM 55.1268 -49.4927 247° West  Level FlightAware Approximate
Tue 12:34:00 PM 55.0748 -49.7021 247° West  Level FlightAware Approximate
Tue 12:35:00 PM 55.0225 -49.9109 246° West  Level FlightAware Approximate
Tue 12:36:00 PM 54.9751 -50.1229 251° West  Level FlightAware Approximate
Tue 12:37:00 PM 54.9314 -50.3372 251° West  Level FlightAware Approximate
Tue 12:38:00 PM 54.8872 -50.5509 250° West  Level FlightAware Approximate
Tue 12:39:00 PM 54.8427 -50.7643 250° West  Level FlightAware Approximate
Tue 12:40:00 PM 54.7979 -50.9771 250° West  Level FlightAware Approximate
Tue 12:41:00 PM 54.7526 -51.1895 250° West  Level FlightAware Approximate
Tue 12:42:00 PM 54.7070 -51.4014 250° West  Level FlightAware Approximate
Tue 12:43:00 PM 54.6610 -51.6128 249° West  Level FlightAware Approximate
Tue 12:44:00 PM 54.6146 -51.8238 249° West  Level FlightAware Approximate
Tue 12:45:00 PM 54.5679 -52.0342 249° West  Level FlightAware Approximate
Tue 12:46:00 PM 54.5208 -52.2442 249° West  Level FlightAware Approximate
Tue 12:47:00 PM 54.4734 -52.4537 249° West  Level FlightAware Approximate
Tue 12:48:00 PM 54.4256 -52.6627 249° West  Level FlightAware Approximate
Tue 12:49:00 PM 54.3774 -52.8712 248° West  Level FlightAware Approximate
Tue 12:50:00 PM 54.3289 -53.0792 248° West  Level FlightAware Approximate
Tue 12:51:00 PM 54.2800 -53.2868 248° West  Level FlightAware Approximate
Tue 12:52:00 PM 54.2308 -53.4938 248° West  Level FlightAware Approximate
Tue 12:53:00 PM 54.1812 -53.7004 248° West  Level FlightAware Approximate
Tue 12:54:00 PM 54.1312 -53.9064 248° West  Level FlightAware Approximate
Tue 12:55:00 PM 54.0809 -54.1119 247° West  Level FlightAware Approximate
Tue 12:56:00 PM 54.0303 -54.3170 247° West  Level FlightAware Approximate
Tue 12:57:00 PM 53.9793 -54.5215 247° West  Level FlightAware Approximate
Tue 12:58:00 PM 53.9279 -54.7256 247° West  Level FlightAware Approximate
Tue 12:59:00 PM 53.8763 -54.9291 247° West  Level FlightAware Approximate
Tue 01:00:00 PM 53.8090 -55.0997 239° Southwest  Level FlightAware Approximate
Tue 01:01:00 PM 53.7418 -55.2892 239° Southwest  Level FlightAware Approximate
Tue 01:02:00 PM 53.6743 -55.4780 239° Southwest  Level FlightAware Approximate
Tue 01:03:00 PM 53.6065 -55.6663 239° Southwest  Level FlightAware Approximate
Tue 01:03:50 PM 53.9833 -54.5167 238° Southwest 400 460 34,000  Level Gander Center
Tue 01:04:00 PM 53.5384 -55.8539 239° Southwest  Level FlightAware Approximate
Tue 01:04:50 PM 53.9167 -54.7167 241° Southwest 400 460 34,000  Level Gander Center
Tue 01:05:00 PM 53.4700 -56.0410 238° Southwest  Level FlightAware Approximate
Tue 01:05:50 PM 53.8667 -54.8667 241° Southwest 400 460 34,000  Level Gander Center
Tue 01:06:00 PM 53.4013 -56.2274 238° Southwest  Level FlightAware Approximate
Tue 01:06:50 PM 53.8000 -55.0500 238° Southwest 410 472 34,000  Level Gander Center
Tue 01:07:00 PM 53.3324 -56.4133 238° Southwest  Level FlightAware Approximate
Tue 01:07:50 PM 53.7500 -55.2000 241° Southwest 410 472 34,000  Level Gander Center
Tue 01:08:00 PM 53.2631 -56.5985 238° Southwest  Level FlightAware Approximate
Tue 01:08:50 PM 53.6833 -55.3500 233° Southwest 410 472 34,000  Level Gander Center
Tue 01:09:00 PM 53.1942 -56.7816 238° Southwest  Level FlightAware Approximate
Tue 01:09:50 PM 53.6167 -55.5333 239° Southwest 410 472 34,000  Level Gander Center
Tue 01:10:50 PM 53.5500 -55.6833 233° Southwest 400 460 34,000  Level Gander Center
Tue 01:11:50 PM 53.4833 -55.8333 233° Southwest 410 472 34,000  Level Gander Center
Tue 01:12:49 PM 53.4167 -55.9833 233° Southwest 410 472 34,000  Level Gander Center
Tue 01:13:49 PM 53.3500 -56.1333 233° Southwest 410 472 34,000  Level Gander Center
Tue 01:14:49 PM 53.2833 -56.3000 236° Southwest 410 472 34,000  Level Gander Center
Tue 01:15:49 PM 53.2333 -56.4500 241° Southwest 410 472 34,000  Level Gander Center
Tue 01:16:50 PM 53.1500 -56.6000 227° Southwest 400 460 34,000  Level Gander Center
Tue 01:17:50 PM 53.1000 -56.7500 241° Southwest 400 460 34,000  Level Gander Center
Tue 01:18:50 PM 53.0167 -56.9167 230° Southwest 410 472 34,000  Level Gander Center
Tue 01:19:50 PM 52.9500 -57.0667 234° Southwest 410 472 34,000  Level Gander Center
Tue 01:20:50 PM 52.8833 -57.2167 234° Southwest 410 472 34,000  Level Gander Center
Tue 01:21:50 PM 52.8167 -57.3500 230° Southwest 410 472 34,000  Level Gander Center
Tue 01:22:50 PM 52.7500 -57.5000 234° Southwest 410 472 34,000  Level Gander Center
Tue 01:23:50 PM 52.6667 -57.6667 231° Southwest 410 472 34,000  Level Gander Center
Tue 01:25:09 PM 52.6000 -57.8667 241° Southwest 410 472 34,000  Level Moncton Center
Tue 01:25:50 PM 52.5500 -57.9500 225° Southwest 410 472 34,000  Level Gander Center
Tue 01:26:50 PM 52.4667 -58.1333 233° Southwest 410 472 34,000  Level Gander Center
Tue 01:27:50 PM 52.4000 -58.2667 231° Southwest 410 472 34,000  Level Gander Center
Tue 01:28:50 PM 52.3500 -58.4000 238° Southwest 410 472 34,000  Level Gander Center
Tue 01:29:50 PM 52.2667 -58.5833 233° Southwest 410 472 34,000  Level Gander Center
Tue 01:30:50 PM 52.2000 -58.7167 231° Southwest 410 472 34,000  Level Gander Center
Tue 01:31:50 PM 52.1333 -58.8500 231° Southwest 400 460 34,000  Level Gander Center
Tue 01:32:50 PM 52.0500 -59.0000 228° Southwest 400 460 34,000  Level Gander Center
Tue 01:33:50 PM 51.9833 -59.1333 231° Southwest 400 460 34,000  Level Gander Center
Tue 01:34:50 PM 51.9167 -59.2833 234° Southwest 400 460 34,000  Level Gander Center
Tue 01:35:50 PM 51.8667 -59.4167 239° Southwest 400 460 34,000  Level Gander Center
Tue 01:36:50 PM 51.7833 -59.5833 231° Southwest 400 460 34,000  Level Gander Center
Tue 01:37:50 PM 51.7167 -59.7167 231° Southwest 400 460 34,000  Level Gander Center
Tue 01:38:50 PM 51.6500 -59.8500 231° Southwest 400 460 34,000  Level Gander Center
Tue 01:39:50 PM 51.5667 -59.9833 225° Southwest 400 460 34,000  Level Gander Center
Tue 01:40:50 PM 51.5000 -60.1333 235° Southwest 400 460 34,000  Level Gander Center
Tue 01:41:50 PM 51.4333 -60.2667 231° Southwest 400 460 34,000  Level Gander Center
Tue 01:42:50 PM 51.3500 -60.4333 231° Southwest 410 472 34,000  Level Gander Center
Tue 01:43:50 PM 51.2833 -60.5667 231° Southwest 400 460 34,000  Level Gander Center
Tue 01:44:50 PM 51.2167 -60.7000 231° Southwest 410 472 34,000  Level Gander Center
Tue 01:45:50 PM 51.1333 -60.8333 225° Southwest 400 460 34,000  Level Gander Center
Tue 01:46:50 PM 51.0667 -60.9667 232° Southwest 400 460 34,000  Level Gander Center
Tue 01:47:50 PM 51.0000 -61.1000 232° Southwest 400 460 34,000  Level Gander Center
Tue 01:48:50 PM 50.9333 -61.2500 235° Southwest 400 460 34,000  Level Gander Center
Tue 01:49:50 PM 50.8500 -61.3833 225° Southwest 400 460 34,000  Level Gander Center
Tue 01:50:50 PM 50.7833 -61.5167 232° Southwest 400 460 34,000  Level Gander Center
Tue 01:51:50 PM 50.7167 -61.6500 232° Southwest 400 460 34,000  Level Gander Center
Tue 01:52:50 PM 50.6333 -61.7833 225° Southwest 400 460 34,000  Level Gander Center
Tue 01:53:50 PM 50.5667 -61.9167 232° Southwest 410 472 34,000  Level Gander Center
Tue 01:54:50 PM 50.5000 -62.0667 235° Southwest 400 460 34,000  Level Gander Center
Tue 01:55:50 PM 50.4333 -62.2000 232° Southwest 390 449 34,000  Level Gander Center
Tue 01:56:50 PM 50.3667 -62.3333 232° Southwest 390 449 34,000  Level Gander Center
Tue 01:57:50 PM 50.2833 -62.4667 226° Southwest 390 449 34,000  Level Gander Center
Tue 01:58:50 PM 50.2167 -62.5833 228° Southwest 400 460 34,000  Level Gander Center
Tue 01:59:50 PM 50.1500 -62.7167 232° Southwest 390 449 34,000  Level Gander Center
Tue 02:00:50 PM 50.0833 -62.8500 232° Southwest 390 449 34,000  Level Gander Center
Tue 02:01:50 PM 50.0000 -62.9667 222° Southwest 390 449 34,000  Level Gander Center
Tue 02:02:50 PM 49.9333 -63.1000 232° Southwest 390 449 34,000  Level Gander Center
Tue 02:04:09 PM 49.8333 -63.2500 224° Southwest 390 449 34,000  Level Moncton Center
Tue 02:05:09 PM 49.7667 -63.3833 232° Southwest 380 437 34,000  Level Moncton Center
Tue 02:06:09 PM 49.7000 -63.4833 224° Southwest 380 437 34,000  Level Moncton Center
Tue 02:07:09 PM 49.6167 -63.6167 226° Southwest 380 437 34,000  Level Moncton Center
Tue 02:07:50 PM 49.5833 -63.7000 238° Southwest 380 437 34,000  Level Gander Center
Tue 02:08:50 PM 49.5000 -63.8333 226° Southwest 380 437 34,000  Level Gander Center
Tue 02:09:50 PM 49.4333 -63.9500 229° Southwest 380 437 34,000  Level Gander Center
Tue 02:10:50 PM 49.3667 -64.0833 233° Southwest 380 437 34,000  Level Gander Center
Tue 02:11:50 PM 49.3000 -64.2000 229° Southwest 380 437 34,000  Level Gander Center
Tue 02:12:50 PM 49.2333 -64.3000 224° Southwest 390 449 34,000  Level Gander Center
Tue 02:13:50 PM 49.1500 -64.4500 230° Southwest 390 449 34,000  Level Gander Center
Tue 02:14:50 PM 49.0833 -64.5500 225° Southwest 390 449 34,000  Level Gander Center
Tue 02:15:50 PM 49.0000 -64.7000 230° Southwest 390 449 34,000  Level Gander Center
Tue 02:16:50 PM 48.9333 -64.8000 225° Southwest 390 449 34,000  Level Gander Center
Tue 02:17:50 PM 48.8500 -64.9333 227° Southwest 390 449 34,000  Level Gander Center
Tue 02:18:50 PM 48.7833 -65.0667 233° Southwest 390 449 34,000  Level Gander Center
Tue 02:19:50 PM 48.7167 -65.1667 225° Southwest 390 449 34,000  Level Gander Center
Tue 02:20:50 PM 48.6500 -65.3000 233° Southwest 390 449 34,000  Level Gander Center
Tue 02:21:50 PM 48.5500 -65.4167 218° Southwest 400 460 34,000  Level Gander Center
Tue 02:22:50 PM 48.4833 -65.5500 233° Southwest 400 460 34,000  Level Gander Center
Tue 02:23:50 PM 48.4167 -65.6667 229° Southwest 400 460 34,000  Level Gander Center
Tue 02:24:50 PM 48.3167 -65.7833 218° Southwest 400 460 34,000  Level Gander Center
Tue 02:25:50 PM 48.2500 -65.9000 229° Southwest 400 460 34,000  Level Gander Center
Tue 02:26:50 PM 48.1833 -66.0167 229° Southwest 400 460 34,000  Level Gander Center
Tue 02:27:50 PM 48.1000 -66.1667 230° Southwest 400 460 34,000  Level Gander Center
Tue 02:28:50 PM 48.0333 -66.2833 230° Southwest 400 460 34,000  Level Gander Center
Tue 02:29:50 PM 47.9500 -66.4000 223° Southwest 410 472 34,000  Level Gander Center
Tue 02:30:50 PM 47.8667 -66.5167 223° Southwest 400 460 34,000  Level Gander Center
Tue 02:31:50 PM 47.7833 -66.6333 223° Southwest 400 460 34,000  Level Gander Center
Tue 02:32:50 PM 47.7167 -66.7500 230° Southwest 400 460 34,000  Level Gander Center
Tue 02:33:50 PM 47.6333 -66.8833 227° Southwest 400 460 34,000  Level Gander Center
Tue 02:34:50 PM 47.5667 -67.0000 230° Southwest 400 460 34,000  Level Gander Center
Tue 02:35:50 PM 47.4833 -67.1167 223° Southwest 400 460 34,000  Level Gander Center
Tue 02:36:50 PM 47.4000 -67.2333 223° Southwest 410 472 34,000  Level Gander Center
Tue 02:37:50 PM 47.3333 -67.3500 230° Southwest 410 472 34,000  Level Gander Center
Tue 02:38:50 PM 47.2333 -67.4667 218° Southwest 410 472 34,000  Level Gander Center
Tue 02:44:44 PM 46.7260 -68.1040 218° Southwest 428 493 34,000  Level FlightAware ADS-B
Tue 02:45:26 PM 46.6650 -68.1420 203° Southwest 428 493 34,000  Level FlightAware ADS-B
Tue 02:46:03 PM 46.6080 -68.1780 203° Southwest 428 493 34,000  Level FlightAware ADS-B
Tue 02:46:34 PM 46.7220 -68.1070 23° Northeast 34,000  Level FlightAware ADS-B
Tue 02:47:13 PM 46.4430 -68.2330 197° South 429 494 34,000  Level FlightAware ADS-B
Tue 02:47:57 PM 46.3640 -68.2650 196° South 419 482 34,000  Level FlightAware ADS-B
Tue 02:48:41 PM 46.2740 -68.3020 196° South 415 478 34,000  Level FlightAware ADS-B
Tue 02:49:22 PM 46.2000 -68.3320 196° South 422 486 34,000  Level FlightAware ADS-B
Tue 02:50:03 PM 46.1260 -68.3630 196° South 422 486 34,000  Level FlightAware ADS-B
Tue 02:50:52 PM 46.0320 -68.4010 196° South 422 486 34,000  Level FlightAware ADS-B
Tue 02:51:32 PM 45.9540 -68.4320 195° South 415 478 34,000  Level FlightAware ADS-B
Tue 02:52:12 PM 45.8790 -68.4630 196° South 416 479 34,000  Level FlightAware ADS-B
Tue 02:52:57 PM 45.7960 -68.4970 196° South 415 478 34,000  Level FlightAware ADS-B
Tue 02:53:37 PM 45.7210 -68.5260 195° South 420 483 34,000  Level FlightAware ADS-B
Tue 02:54:22 PM 45.6360 -68.5610 196° South 418 481 34,000  Level FlightAware ADS-B
Tue 02:54:58 PM 45.5690 -68.5870 195° South 417 480 34,000  Level FlightAware ADS-B
Tue 02:55:43 PM 45.4850 -68.6210 196° South 417 480 34,000  Level FlightAware ADS-B
Tue 02:56:23 PM 45.4110 -68.6500 195° South 417 480 34,000  Level FlightAware ADS-B
Tue 02:57:08 PM 45.3280 -68.6830 196° South 415 478 34,000  Level FlightAware ADS-B
Tue 02:57:43 PM 45.2670 -68.7070 195° South 416 479 34,000  Level FlightAware ADS-B
Tue 02:58:30 PM 45.1710 -68.7450 196° South 422 486 34,000  Level FlightAware ADS-B
Tue 02:59:11 PM 45.0960 -68.7750 196° South 424 488 34,000  Level FlightAware ADS-B
Tue 02:59:47 PM 45.0270 -68.8020 195° South 424 488 34,000  Level FlightAware ADS-B
Tue 03:00:29 PM 44.9470 -68.8330 195° South 426 490 34,000  Level FlightAware ADS-B
Tue 03:01:11 PM 44.8690 -68.8640 196° South 428 493 34,000  Level FlightAware ADS-B
Tue 03:01:54 PM 44.7890 -68.9090 202° Southwest 426 490 34,000  Level FlightAware ADS-B
Tue 03:02:49 PM 44.6940 -68.9750 206° Southwest 427 491 34,000  Level FlightAware ADS-B
Tue 03:03:29 PM 44.6220 -69.0240 206° Southwest 430 495 34,000  Level FlightAware ADS-B
Tue 03:04:13 PM 44.5420 -69.0790 206° Southwest 433 498 34,000  Level FlightAware ADS-B
Tue 03:04:53 PM 44.4730 -69.1250 205° Southwest 435 501 34,000  Level FlightAware ADS-B
Tue 03:05:37 PM 44.3930 -69.1790 206° Southwest 434 499 34,000  Level FlightAware ADS-B
Tue 03:06:16 PM 44.3200 -69.2280 206° Southwest 432 497 34,000  Level FlightAware ADS-B
Tue 03:06:59 PM 44.2430 -69.2800 206° Southwest 429 494 34,000  Level FlightAware ADS-B
Tue 03:07:39 PM 44.1710 -69.3280 206° Southwest 429 494 34,000  Level FlightAware ADS-B
Tue 03:08:23 PM 44.0920 -69.3810 206° Southwest 431 496 34,000  Level FlightAware ADS-B
Tue 03:09:03 PM 44.0210 -69.4280 205° Southwest 432 497 34,000  Level FlightAware ADS-B
Tue 03:09:47 PM 43.9430 -69.4800 206° Southwest 425 489 34,000  Level FlightAware ADS-B
Tue 03:10:19 PM 43.8940 -69.5120 205° Southwest 424 488 34,000  Level FlightAware ADS-B
Tue 03:10:59 PM 43.8150 -69.5640 205° Southwest 423 487 34,000  Level FlightAware ADS-B
Tue 03:11:45 PM 43.7420 -69.6120 205° Southwest 423 487 34,000  Level FlightAware ADS-B
Tue 03:12:21 PM 43.6690 -69.6600 205° Southwest 431 496 34,000  Level FlightAware ADS-B
Tue 03:13:05 PM 43.5890 -69.7130 206° Southwest 437 503 34,000  Level FlightAware ADS-B
Tue 03:13:43 PM 43.5190 -69.7580 205° Southwest 434 499 34,000  Level FlightAware ADS-B
Tue 03:14:20 PM 43.4580 -69.7980 205° Southwest 421 484 34,000  Level FlightAware ADS-B
Tue 03:14:57 PM 43.3830 -69.8310 198° South 432 497 34,000  Level FlightAware ADS-B
Tue 03:15:45 PM 43.2880 -69.8520 189° South 434 499 34,000  Level FlightAware ADS-B
Tue 03:16:23 PM 43.2150 -69.8640 187° South 424 488 34,000  Level FlightAware ADS-B
Tue 03:17:08 PM 43.1260 -69.8780 187° South 421 484 34,000  Level FlightAware ADS-B
Tue 03:17:49 PM 43.0460 -69.8900 186° South 419 482 34,000  Level FlightAware ADS-B
Tue 03:18:29 PM 42.9710 -69.9010 186° South 418 481 34,000  Level FlightAware ADS-B
Tue 03:19:23 PM 42.8560 -69.9060 182° South 430 495 34,000  Level FlightAware ADS-B
Tue 03:19:58 PM 42.7890 -69.9140 185° South 427 491 34,000  Level FlightAware ADS-B
Tue 03:20:44 PM 42.6980 -69.9290 187° South 419 482 34,000  Level FlightAware ADS-B
Tue 03:21:27 PM 42.6140 -69.9480 189° South 427 491 34,000  Level FlightAware ADS-B
Tue 03:22:21 PM 42.5290 -69.9640 188° South 421 484 34,000  Level FlightAware ADS-B
Tue 03:23:04 PM 42.4250 -69.9790 186° South 423 487 34,000  Level FlightAware ADS-B
Tue 03:23:48 PM 42.3370 -69.9920 186° South 424 488 34,000  Level FlightAware ADS-B
Tue 03:24:28 PM 42.2570 -70.0030 186° South 423 487 34,000  Level FlightAware ADS-B
Tue 03:25:13 PM 42.1700 -70.0180 187° South 421 484 34,000  Level FlightAware ADS-B
Tue 03:25:53 PM 42.0930 -70.0460 195° South 424 488 34,000  Level FlightAware ADS-B
Tue 03:26:33 PM 42.0280 -70.0840 203° Southwest 415 478 34,000  Level FlightAware ADS-B
Tue 03:27:28 PM 41.9350 -70.1680 214° Southwest 421 484 34,000  Level FlightAware ADS-B
Tue 03:28:33 PM 41.8510 -70.2820 225° Southwest 422 486 34,000  Level FlightAware ADS-B
Tue 03:29:18 PM 41.7850 -70.3780 227° Southwest 416 479 34,000 800 Level FlightAware ADS-B
Tue 03:30:00 PM 41.7300 -70.4570 227° Southwest 34,500 1,143 Climbing FlightAware ADS-B
Tue 03:31:03 PM 41.6530 -70.5700 228° Southwest 408 470 36,000 796 Climbing FlightAware ADS-B
Tue 03:31:53 PM 41.5950 -70.6550 228° Southwest 408 470 36,000  Level FlightAware ADS-B
Tue 03:32:30 PM 41.5340 -70.7420 227° Southwest 410 472 36,000  Level FlightAware ADS-B
Tue 03:33:11 PM 41.4820 -70.8160 227° Southwest 410 472 36,000  Level FlightAware ADS-B
Tue 03:34:01 PM 41.4160 -70.9110 227° Southwest 409 471 36,000  Level FlightAware ADS-B
Tue 03:34:46 PM 41.3580 -70.9940 227° Southwest 408 470 36,000  Level FlightAware ADS-B
Tue 03:35:26 PM 41.3060 -71.0680 227° Southwest 413 475 36,000  Level FlightAware ADS-B
Tue 03:36:06 PM 41.2610 -71.1480 233° Southwest 411 473 36,000  Level FlightAware ADS-B
Tue 03:36:50 PM 41.2230 -71.2510 244° Southwest 414 476 36,000  Level FlightAware ADS-B
Tue 03:37:31 PM 41.1950 -71.3500 249° West 416 479 36,000  Level FlightAware ADS-B
Tue 03:38:15 PM 41.1680 -71.4470 250° West 416 479 36,000  Level FlightAware ADS-B
Tue 03:39:12 PM 41.1280 -71.5880 249° West 417 480 36,000  Level FlightAware ADS-B
Tue 03:39:41 PM 41.1070 -71.6632 250° West 418 481 36,000  Level FlightAware ADS-B
Tue 03:40:38 PM 41.0770 -71.7650 249° West 417 480 36,000  Level FlightAware ADS-B
Tue 03:40:59 PM 41.0533 -71.8515 250° West 421 484 36,000  Level FlightAware ADS-B
Tue 03:41:31 PM 41.0312 -71.9288 249° West 420 483 36,000  Level FlightAware ADS-B
Tue 03:42:04 PM 41.0086 -72.0075 249° West 419 482 36,000  Level FlightAware ADS-B
Tue 03:42:36 PM 40.9869 -72.0829 249° West 417 480 36,000  Level FlightAware ADS-B
Tue 03:43:07 PM 40.9652 -72.1578 249° West 417 480 36,000  Level FlightAware ADS-B
Tue 03:43:41 PM 40.9389 -72.2358 246° West 416 479 36,000  Level FlightAware ADS-B
Tue 03:44:13 PM 40.9060 -72.3052 238° Southwest 414 476 36,000  Level FlightAware ADS-B
Tue 03:44:45 PM 40.8681 -72.3671 231° Southwest 413 475 36,000  Level FlightAware ADS-B
Tue 03:45:16 PM 40.8250 -72.4219 224° Southwest 414 476 36,000  Level FlightAware ADS-B
Tue 03:45:50 PM 40.7779 -72.4763 221° Southwest 416 479 36,000  Level FlightAware ADS-B
Tue 03:46:22 PM 40.7299 -72.5323 221° Southwest 418 481 36,000  Level FlightAware ADS-B
Tue 03:46:54 PM 40.6865 -72.5843 222° Southwest 419 482 36,000  Level FlightAware ADS-B
Tue 03:47:06 PM 40.6672 -72.6084 223° Southwest 418 481 36,000  Level FlightAware ADS-B
Tue 03:47:37 PM 40.6235 -72.6595 222° Southwest 417 480 36,000  Level FlightAware ADS-B
Tue 03:48:16 PM 40.5672 -72.7236 221° Southwest 415 478 36,000  Level FlightAware ADS-B
Tue 03:48:54 PM 40.5123 -72.7862 221° Southwest 413 475 36,000  Level FlightAware ADS-B
Tue 03:49:25 PM 40.4677 -72.8372 221° Southwest 410 472 36,000  Level FlightAware ADS-B
Tue 03:49:56 PM 40.4233 -72.8879 221° Southwest 410 472 36,000  Level FlightAware ADS-B
Tue 03:50:33 PM 40.3703 -72.9482 221° Southwest 408 470 36,000  Level FlightAware ADS-B
Tue 03:51:16 PM 40.3092 -73.0175 221° Southwest 409 471 36,000  Level FlightAware ADS-B
Tue 03:51:46 PM 40.2662 -73.0663 221° Southwest 409 471 36,000  Level FlightAware ADS-B
Tue 03:52:16 PM 40.2229 -73.1154 221° Southwest 410 472 36,000  Level FlightAware ADS-B
Tue 03:52:47 PM 40.1795 -73.1644 221° Southwest 410 472 36,000  Level FlightAware ADS-B
Tue 03:53:21 PM 40.1308 -73.2193 221° Southwest 411 473 36,000  Level FlightAware ADS-B
Tue 03:54:10 PM 40.0595 -73.2994 221° Southwest 411 473 36,000  Level FlightAware ADS-B
Tue 03:54:46 PM 40.0085 -73.3568 221° Southwest 412 474 36,000  Level FlightAware ADS-B
Tue 03:55:18 PM 39.9623 -73.4086 221° Southwest 413 475 36,000  Level FlightAware ADS-B
Tue 03:55:50 PM 39.9163 -73.4600 221° Southwest 413 475 36,000  Level FlightAware ADS-B
Tue 03:56:31 PM 39.8562 -73.5271 221° Southwest 412 474 36,000  Level FlightAware ADS-B
Tue 03:57:07 PM 39.8044 -73.5848 221° Southwest 413 475 36,000  Level FlightAware ADS-B
Tue 03:57:37 PM 39.7603 -73.6338 221° Southwest 413 475 36,000  Level FlightAware ADS-B
Tue 03:58:10 PM 39.7132 -73.6859 220° Southwest 412 474 36,000  Level FlightAware ADS-B
Tue 03:58:40 PM 39.6693 -73.7346 221° Southwest 413 475 36,000  Level FlightAware ADS-B
Tue 03:59:10 PM 39.6253 -73.7833 220° Southwest 414 476 36,000  Level FlightAware ADS-B
Tue 03:59:44 PM 39.5771 -73.8364 220° Southwest 414 476 36,000  Level FlightAware ADS-B
Tue 04:00:15 PM 39.5308 -73.8874 220° Southwest 414 476 36,000  Level FlightAware ADS-B
Tue 04:00:45 PM 39.4869 -73.9356 220° Southwest 414 476 36,000  Level FlightAware ADS-B
Tue 04:01:18 PM 39.4392 -73.9880 220° Southwest 415 478 36,000  Level FlightAware ADS-B
Tue 04:01:48 PM 39.3950 -74.0364 220° Southwest 414 476 36,000  Level FlightAware ADS-B
Tue 04:02:19 PM 39.3505 -74.0851 220° Southwest 414 476 36,000  Level FlightAware ADS-B
Tue 04:02:51 PM 39.3028 -74.1371 220° Southwest 414 476 36,000  Level FlightAware ADS-B
Tue 04:03:40 PM 39.2326 -74.2135 220° Southwest 412 474 36,000  Level FlightAware ADS-B
Tue 04:04:11 PM 39.1864 -74.2636 220° Southwest 411 473 36,000  Level FlightAware ADS-B
Tue 04:04:42 PM 39.1426 -74.3112 220° Southwest 410 472 36,000  Level FlightAware ADS-B
Tue 04:05:12 PM 39.0985 -74.3589 220° Southwest 412 474 36,000  Level FlightAware ADS-B
Tue 04:05:45 PM 39.0500 -74.4113 220° Southwest 412 474 36,000  Level FlightAware ADS-B
Tue 04:06:16 PM 39.0057 -74.4590 220° Southwest 413 475 36,000  Level FlightAware ADS-B
Tue 04:06:46 PM 38.9614 -74.5068 220° Southwest 414 476 36,000  Level FlightAware ADS-B
Tue 04:07:16 PM 38.9166 -74.5551 220° Southwest 415 478 36,000  Level FlightAware ADS-B
Tue 04:07:47 PM 38.8719 -74.6030 220° Southwest 417 480 36,000  Level FlightAware ADS-B
Tue 04:08:31 PM 38.8059 -74.6735 220° Southwest 417 480 36,000  Level FlightAware ADS-B
Tue 04:09:03 PM 38.7586 -74.7241 220° Southwest 417 480 36,000  Level FlightAware ADS-B
Tue 04:09:35 PM 38.7120 -74.7738 220° Southwest 416 479 36,000  Level FlightAware ADS-B
Tue 04:10:26 PM 38.6365 -74.8543 220° Southwest 415 478 36,000  Level FlightAware ADS-B
Tue 04:10:56 PM 38.5935 -74.8999 220° Southwest 416 479 36,000  Level FlightAware ADS-B
Tue 04:11:27 PM 38.5466 -74.9496 220° Southwest 416 479 36,000  Level FlightAware ADS-B
Tue 04:12:01 PM 38.4958 -75.0035 220° Southwest 416 479 36,000  Level FlightAware ADS-B
Tue 04:12:55 PM 38.4164 -75.0873 220° Southwest 417 480 36,000  Level FlightAware ADS-B
Tue 04:13:26 PM 38.3693 -75.1368 219° Southwest 418 481 36,000  Level FlightAware ADS-B
Tue 04:13:57 PM 38.3235 -75.1850 220° Southwest 419 482 36,000  Level FlightAware ADS-B
Tue 04:15:00 PM 38.2300 -75.2810 219° Southwest 419 482 36,000  Level FlightAware ADS-B
Tue 04:15:37 PM 38.1677 -75.3241 209° Southwest 421 484 36,000  Level FlightAware ADS-B
Tue 04:16:07 PM 38.1165 -75.3602 209° Southwest 422 486 36,000  Level FlightAware ADS-B
Tue 04:16:38 PM 38.0730 -75.3907 209° Southwest 423 487 36,000  Level FlightAware ADS-B
Tue 04:17:10 PM 38.0091 -75.4356 209° Southwest 424 488 36,000  Level FlightAware ADS-B
Tue 04:17:42 PM 37.9548 -75.4737 209° Southwest 426 490 36,000  Level FlightAware ADS-B
Tue 04:18:24 PM 37.8820 -75.5250 209° Southwest 427 491 36,000  Level FlightAware ADS-B
Tue 04:19:05 PM 37.8190 -75.5690 209° Southwest 427 491 36,000  Level FlightAware ADS-B
Tue 04:19:52 PM 37.7272 -75.6333 209° Southwest 427 491 36,000  Level FlightAware ADS-B
Tue 04:20:22 PM 37.6746 -75.6699 209° Southwest 429 494 36,000  Level FlightAware ADS-B
Tue 04:20:53 PM 37.6221 -75.7065 209° Southwest 428 493 36,000  Level FlightAware ADS-B
Tue 04:21:24 PM 37.5677 -75.7444 209° Southwest 430 495 36,000  Level FlightAware ADS-B
Tue 04:22:44 PM 37.4310 -75.8390 209° Southwest 422 486 36,000  Level FlightAware ADS-B
Tue 04:23:56 PM 37.3130 -75.9200 209° Southwest 423 487 36,000  Level FlightAware ADS-B
Tue 04:24:35 PM 37.2334 -75.9754 209° Southwest 433 498 36,000  Level FlightAware ADS-B
Tue 04:25:08 PM 37.1768 -76.0143 209° Southwest 435 501 36,000  Level FlightAware ADS-B
Tue 04:25:44 PM 37.1123 -76.0585 209° Southwest 436 502 36,000  Level FlightAware ADS-B
Tue 04:26:16 PM 37.0556 -76.0972 209° Southwest 437 503 36,000  Level FlightAware ADS-B
Tue 04:26:53 PM 36.9905 -76.1417 209° Southwest 438 504 36,000  Level FlightAware ADS-B
Tue 04:27:26 PM 36.9316 -76.1818 209° Southwest 438 504 36,000  Level FlightAware ADS-B
Tue 04:28:20 PM 36.8430 -76.2420 209° Southwest 439 505 36,000  Level FlightAware ADS-B
Tue 04:28:36 PM 36.8069 -76.2666 209° Southwest 440 506 36,000  Level FlightAware ADS-B
Tue 04:29:17 PM 36.7430 -76.3100 209° Southwest 439 505 36,000  Level FlightAware ADS-B
Tue 04:29:44 PM 36.6853 -76.3490 208° Southwest 439 505 36,000  Level FlightAware ADS-B
Tue 04:30:41 PM 36.5880 -76.4150 209° Southwest 440 506 36,000  Level FlightAware ADS-B
Tue 04:31:21 PM 36.5200 -76.4600 208° Southwest 441 507 36,000  Level FlightAware ADS-B
Tue 04:32:01 PM 36.4430 -76.5120 209° Southwest 443 510 36,000  Level FlightAware ADS-B
Tue 04:32:40 PM 36.3720 -76.5590 208° Southwest 437 503 36,000  Level FlightAware ADS-B
Tue 04:33:26 PM 36.2900 -76.6150 209° Southwest 437 503 36,000  Level FlightAware ADS-B
Tue 04:34:06 PM 36.2180 -76.6630 208° Southwest 438 504 36,000  Level FlightAware ADS-B
Tue 04:34:51 PM 36.1360 -76.7170 208° Southwest 439 505 36,000  Level FlightAware ADS-B
Tue 04:35:30 PM 36.0640 -76.7650 208° Southwest 440 506 36,000  Level FlightAware ADS-B
Tue 04:36:18 PM 35.9820 -76.8200 208° Southwest 441 507 36,000  Level FlightAware ADS-B
Tue 04:37:06 PM 35.8900 -76.8800 208° Southwest 441 507 36,000  Level FlightAware ADS-B
Tue 04:37:49 PM 35.8300 -76.9200 208° Southwest 441 507 36,000  Level FlightAware ADS-B
Tue 04:38:23 PM 35.7780 -76.9540 208° Southwest 441 507 36,000  Level FlightAware ADS-B
Tue 04:38:59 PM 35.7230 -76.9900 208° Southwest 441 507 36,000  Level FlightAware ADS-B
Tue 04:39:47 PM 35.6490 -77.0380 208° Southwest 441 507 36,000  Level FlightAware ADS-B
Tue 04:40:24 PM 35.5920 -77.0750 208° Southwest 441 507 36,000  Level FlightAware ADS-B
Tue 04:41:12 PM 35.5190 -77.1230 208° Southwest 441 507 36,000  Level FlightAware ADS-B
Tue 04:41:47 PM 35.4650 -77.1580 208° Southwest 441 507 36,000  Level FlightAware ADS-B
Tue 04:42:35 PM 35.3920 -77.2060 208° Southwest 441 507 36,000  Level FlightAware ADS-B
Tue 04:43:11 PM 35.3370 -77.2420 208° Southwest 441 507 36,000  Level FlightAware ADS-B
Tue 04:43:48 PM 35.2800 -77.2790 208° Southwest 441 507 36,000  Level FlightAware ADS-B
Tue 04:44:36 PM 35.2070 -77.3270 208° Southwest 441 507 36,000  Level FlightAware ADS-B
Tue 04:45:12 PM 35.1510 -77.3630 208° Southwest 441 507 36,000  Level FlightAware ADS-B
Tue 04:45:50 PM 35.0930 -77.4010 208° Southwest 441 507 36,000  Level FlightAware ADS-B
Tue 04:46:26 PM 35.0380 -77.4360 208° Southwest 441 507 36,000  Level FlightAware ADS-B
Tue 04:47:41 PM 34.7322 -77.6367 208° Southwest 454 522 36,000  Level Washington Center
Tue 04:53:30 PM 34.0250 -77.9690 208° Southwest 461 531 36,000  Level FlightAware ADS-B
Tue 04:54:31 PM 33.9070 -78.0030 193° South 460 529 36,000  Level FlightAware ADS-B
Tue 04:55:10 PM 33.8170 -78.0290 193° South 460 529 36,000  Level FlightAware ADS-B
Tue 04:55:50 PM 33.7330 -78.0540 194° South 460 529 36,000  Level FlightAware ADS-B
Tue 04:57:05 PM 33.5980 -78.0910 193° South 460 529 36,000  Level FlightAware ADS-B
Tue 04:57:30 PM 33.6690 -78.0720 13° North 459 528 36,000  Level FlightAware ADS-B
Tue 04:58:45 PM 33.3750 -78.1560 193° South 457 526 36,000  Level FlightAware ADS-B
Tue 04:59:30 PM 33.2800 -78.1830 193° South 458 527 36,000  Level FlightAware ADS-B
Tue 05:00:33 PM 33.1610 -78.2160 193° South 458 527 36,000  Level FlightAware ADS-B
Tue 05:01:20 PM 33.0500 -78.2480 194° South 459 528 36,000  Level FlightAware ADS-B
Tue 05:01:58 PM 32.9770 -78.2690 194° South 461 531 36,000  Level FlightAware ADS-B
Tue 05:02:45 PM 32.8770 -78.2970 193° South 462 532 36,000  Level FlightAware ADS-B
Tue 05:03:20 PM 32.8060 -78.3170 193° South 462 532 36,000  Level FlightAware ADS-B
Tue 05:04:00 PM 32.7180 -78.3420 193° South 461 531 36,000  Level FlightAware ADS-B
Tue 05:04:50 PM 32.6140 -78.3710 193° South 461 531 36,000  Level FlightAware ADS-B
Tue 05:05:30 PM 32.5340 -78.3930 193° South 461 531 36,000  Level FlightAware ADS-B
Tue 05:06:10 PM 32.4470 -78.4170 193° South 462 532 36,000  Level FlightAware ADS-B
Tue 05:06:55 PM 32.3540 -78.4440 194° South 461 531 36,000  Level FlightAware ADS-B
Tue 05:07:40 PM 32.2730 -78.4680 194° South 461 531 36,000  Level FlightAware ADS-B
Tue 05:08:16 PM 32.2100 -78.4870 194° South 461 531 36,000  Level FlightAware ADS-B
Tue 05:09:04 PM 32.1260 -78.5110 194° South 461 531 36,000  Level FlightAware ADS-B
Tue 05:09:28 PM 32.0830 -78.5240 194° South 461 531 36,000  Level FlightAware ADS-B
Tue 05:10:16 PM 31.9990 -78.5490 194° South 461 531 36,000  Level FlightAware ADS-B
Tue 05:10:53 PM 31.9340 -78.5680 194° South 461 531 36,000  Level FlightAware ADS-B
Tue 05:11:33 PM 31.8640 -78.5890 194° South 461 531 36,000  Level FlightAware ADS-B
Tue 05:12:09 PM 31.8000 -78.6070 193° South 461 531 36,000  Level FlightAware ADS-B
Tue 05:12:59 PM 31.7120 -78.6330 194° South 461 531 36,000  Level FlightAware ADS-B
Tue 05:13:35 PM 31.6490 -78.6510 194° South 461 531 36,000  Level FlightAware ADS-B
Tue 05:14:24 PM 31.5630 -78.6770 194° South 461 531 36,000  Level FlightAware ADS-B
Tue 05:15:00 PM 31.4990 -78.6950 193° South 461 531 36,000  Level FlightAware ADS-B
Tue 05:15:48 PM 31.4150 -78.7200 194° South 461 531 36,000  Level FlightAware ADS-B
Tue 05:16:25 PM 31.3500 -78.7390 194° South 461 531 36,000  Level FlightAware ADS-B
Tue 05:17:01 PM 31.2870 -78.7570 194° South 461 531 36,000  Level FlightAware ADS-B
Tue 05:17:31 PM 31.0428 -78.8267 194° South 474 545 36,000  Level Jacksonville Center
Tue 05:18:31 PM 30.9164 -78.8561 191° South 469 540 36,000  Level Jacksonville Center
Tue 05:19:31 PM 30.7944 -78.8928 194° South 469 540 36,000  Level Jacksonville Center
Tue 05:20:31 PM 30.6661 -78.9297 194° South 469 540 36,000  Level Jacksonville Center
Tue 05:21:06 PM 30.5964 -78.9492 193° South 455 524 36,000  Level Miami Center
Tue 05:22:06 PM 30.4708 -78.9828 193° South 450 518 36,000  Level Miami Center
Tue 05:23:06 PM 30.3492 -79.0283 198° South 459 528 36,000  Level Miami Center
Tue 05:24:06 PM 30.2233 -79.0833 201° Southwest 467 537 36,000  Level Miami Center
Tue 05:25:06 PM 30.0997 -79.1336 199° South 472 543 36,000  Level Miami Center
Tue 05:26:06 PM 29.9842 -79.1886 202° Southwest 472 543 36,000  Level Miami Center
Tue 05:27:06 PM 29.8642 -79.2433 202° Southwest 472 543 36,000  Level Miami Center
Tue 05:28:06 PM 29.7444 -79.2981 202° Southwest 472 543 36,000  Level Miami Center
Tue 05:29:06 PM 29.6186 -79.3456 198° South 472 543 36,000  Level Miami Center
Tue 05:30:06 PM 29.4989 -79.3975 201° Southwest 472 543 36,000  Level Miami Center
Tue 05:31:06 PM 29.3792 -79.4447 199° South 472 543 36,000  Level Miami Center
Tue 05:32:06 PM 29.2611 -79.4992 202° Southwest 472 543 36,000  Level Miami Center
Tue 05:33:06 PM 29.1392 -79.5508 200° South 472 543 36,000  Level Miami Center
Tue 05:34:06 PM 29.0094 -79.5831 192° South 472 543 36,000  Level Miami Center
Tue 05:39:36 PM 28.2750 -79.7150 192° South 480 552 36,000  Level FlightAware ADS-B
Tue 05:40:46 PM 28.1430 -79.7370 188° South 480 552 36,000  Level FlightAware ADS-B
Tue 05:41:23 PM 28.0730 -79.7480 188° South 480 552 36,000  Level FlightAware ADS-B
Tue 05:42:09 PM 27.9870 -79.7610 188° South 480 552 36,000  Level FlightAware ADS-B
Tue 05:42:48 PM 27.8660 -79.8530 214° Southwest 478 550 36,000  Level FlightAware ADS-B
Tue 05:43:49 PM 27.7510 -79.8990 199° South 477 549 36,000  Level FlightAware ADS-B
Tue 05:44:22 PM 27.6710 -79.9320 200° South 478 550 36,000  Level FlightAware ADS-B
Tue 05:45:13 PM 27.5750 -79.9700 199° South 480 552 36,000  Level FlightAware ADS-B
Tue 05:46:01 PM 27.4830 -80.0070 200° South 480 552 36,000  Level FlightAware ADS-B
Tue 05:46:32 PM 27.3990 -80.0420 200° South 476 548 36,000  Level FlightAware ADS-B
Tue 05:47:12 PM 27.3220 -80.0730 200° South 478 550 36,000  Level FlightAware ADS-B
Tue 05:48:00 PM 27.2210 -80.1140 200° South 478 550 36,000  Level FlightAware ADS-B
Tue 05:48:49 PM 27.1120 -80.1570 199° South 477 549 36,000  Level FlightAware ADS-B
Tue 05:49:32 PM 27.0220 -80.1930 200° South 476 548 36,000  Level FlightAware ADS-B
Tue 05:50:19 PM 26.9280 -80.2310 200° South 474 545 36,000  Level FlightAware ADS-B
Tue 05:51:02 PM 26.8310 -80.2690 199° South 474 545 36,000  Level FlightAware ADS-B
Tue 05:51:42 PM 26.7500 -80.3010 199° South 475 547 36,000  Level FlightAware ADS-B
Tue 05:52:22 PM 26.6650 -80.3350 200° South 476 548 36,000  Level FlightAware ADS-B
Tue 05:53:07 PM 26.5740 -80.3710 199° South 478 550 36,000  Level FlightAware ADS-B
Tue 05:53:42 PM 26.4980 -80.4010 199° South 479 551 36,000  Level FlightAware ADS-B
Tue 05:54:27 PM 26.4040 -80.4380 199° South 480 552 36,000  Level FlightAware ADS-B
Tue 05:55:12 PM 26.3170 -80.4720 199° South 479 551 36,000  Level FlightAware ADS-B
Tue 05:55:47 PM 26.2410 -80.5020 199° South 480 552 36,000  Level FlightAware ADS-B
Tue 05:56:27 PM 26.1550 -80.5360 200° South 479 551 36,000  Level FlightAware ADS-B
Tue 05:57:12 PM 26.0660 -80.5830 205° Southwest 483 556 36,000  Level FlightAware ADS-B
Tue 05:57:53 PM 25.9960 -80.6520 222° Southwest 485 558 36,000  Level FlightAware ADS-B
Tue 05:58:38 PM 25.9240 -80.7200 220° Southwest 484 557 36,000  Level FlightAware ADS-B
Tue 05:59:13 PM 25.8610 -80.7800 221° Southwest 478 550 36,000  Level FlightAware ADS-B
Tue 05:59:58 PM 25.7830 -80.8540 221° Southwest 485 558 36,000  Level FlightAware ADS-B
Tue 06:00:33 PM 25.7230 -80.9120 221° Southwest 485 558 36,000  Level FlightAware ADS-B
Tue 06:01:13 PM 25.6550 -80.9760 220° Southwest 485 558 36,000  Level FlightAware ADS-B
Tue 06:01:58 PM 25.5770 -81.0510 221° Southwest 486 559 36,000  Level FlightAware ADS-B
Tue 06:02:38 PM 25.5100 -81.1140 220° Southwest 485 558 36,000  Level FlightAware ADS-B
Tue 06:03:23 PM 25.4300 -81.1890 220° Southwest 487 560 36,000  Level FlightAware ADS-B
Tue 06:04:08 PM 25.3540 -81.2610 221° Southwest 490 564 36,000  Level FlightAware ADS-B
Tue 06:04:48 PM 25.2850 -81.3260 220° Southwest 487 560 36,000  Level FlightAware ADS-B
Tue 06:05:28 PM 25.2150 -81.3920 220° Southwest 488 562 36,000  Level FlightAware ADS-B
Tue 06:06:13 PM 25.1380 -81.4650 221° Southwest 486 559 36,000  Level FlightAware ADS-B
Tue 06:06:53 PM 25.0680 -81.5300 220° Southwest 491 565 36,000  Level FlightAware ADS-B
Tue 06:07:38 PM 24.9890 -81.6040 220° Southwest 490 564 36,000  Level FlightAware ADS-B
Tue 06:08:18 PM 24.9220 -81.6660 220° Southwest 486 559 36,000 -1,050 Level FlightAware ADS-B
Tue 06:08:58 PM 24.8500 -81.7340 221° Southwest 503 579 34,600 -1,950 Descending FlightAware ADS-B
Tue 06:09:38 PM 24.7820 -81.7970 220° Southwest 490 564 33,400 -1,341 Descending FlightAware ADS-B
Tue 06:10:23 PM 24.7040 -81.8690 220° Southwest 458 527 32,700 -975 Descending FlightAware ADS-B
Tue 06:10:58 PM 24.6470 -81.9010 207° Southwest 452 520 32,100 -1,537 Descending FlightAware ADS-B
Tue 06:11:45 PM 24.5440 -81.9190 189° South 440 506 30,600 -1,851 Descending FlightAware ADS-B
Tue 06:12:32 PM 24.4510 -81.9320 187° South 422 486 29,200 -2,276 Descending FlightAware ADS-B
Tue 06:13:12 PM 24.3690 -81.9430 187° South 434 499 27,300 -3,038 Descending FlightAware ADS-B
Tue 06:13:51 PM 24.2900 -81.9530 187° South 442 509 25,200 -2,653 Descending FlightAware ADS-B
Tue 06:14:47 PM 24.1740 -81.9680 187° South 434 499 23,100 -2,196 Descending FlightAware ADS-B
Tue 06:15:43 PM 24.0650 -81.9800 186° South 408 470 21,100 -1,670 Descending FlightAware ADS-B
Tue 06:16:24 PM 24.0010 -81.9860 185° South 404 465 20,400 -3,379 Descending FlightAware ADS-B
Tue 06:17:10 PM 23.9070 -81.9970 186° South 385 443 16,200 -3,409 Descending FlightAware ADS-B
Tue 06:17:52 PM 23.8450 -82.0040 186° South 376 433 15,400 -2,267 Descending FlightAware ADS-B
Tue 06:18:40 PM 23.7630 -82.0140 186° South 340 391 12,800 -1,300 Descending FlightAware ADS-B
Tue 06:19:52 PM 23.6670 -82.0250 186° South 340 391 12,800  Level FlightAware ADS-B
Tue 06:23:00 PM 23.2986 -82.2186 206° Southwest  Level FlightAware Approximate
Tue 06:24:00 PM 23.1810 -82.2802 206° Southwest  Level FlightAware Approximate
Tue 06:25:00 PM 23.0633 -82.3416 206° Southwest  Level FlightAware Approximate
Tue 06:26:00 PM 22.9891 -82.4091 223° Southwest  Level Estimated
Tue 06:27:00 PM 22.9891 -82.4091 223° Southwest  Level Estimated
Tue 06:28:00 PM 22.9891 -82.4091 223° Southwest  Level Estimated
Tue 06:29:00 PM 22.9891 -82.4091 223° Southwest  Level Estimated
Tue 06:30:00 PM 22.9891 -82.4091 223° Southwest  Level Estimated
Tue 06:31:00 PM 22.9891 -82.4091 223° Southwest  Level Estimated
Tue 06:32:00 PM 22.9891 -82.4091 223° Southwest  Level Estimated
Tue 06:33:00 PM 22.9891 -82.4091 223° Southwest  Level Estimated
Tue 06:34:00 PM 22.9891 -82.4091 223° Southwest  Level Estimated
Tue 06:35:00 PM 22.9891 -82.4091 223° Southwest  Level Estimated
Tue 06:36:00 PM 22.9891 -82.4091 223° Southwest  Level Estimated
Tue 06:37:00 PM 22.9891 -82.4091 223° Southwest  Level Estimated
Tue 06:38:00 PM 22.9891 -82.4091 223° Southwest  Level Estimated
Tue 06:39:00 PM 22.9891 -82.4091 223° Southwest  Level Estimated
Tue 06:40:00 PM 22.9891 -82.4091 223° Southwest  Level Estimated
Tue 06:41:00 PM 22.9891 -82.4091 223° Southwest  Level Estimated
Tue 06:42:00 PM 22.9891 -82.4091 223° Southwest  Level Estimated
Tue 06:43:00 PM 22.9891 -82.4091 223° Southwest  Level Estimated
Tue 06:44:00 PM 22.9891 -82.4091 223° Southwest  Level Estimated
Tue 06:45:00 PM 22.9891 -82.4091 223° Southwest  Level Estimated
Tue 06:46:00 PM 22.9891 -82.4091 223° Southwest  Level Estimated

Login

Don't have an account? Register now (free) for customized features, flight alerts, and more!